Home > Products > Valid Products > OSO

000
SXUS55 KMSO 171724
OSOMSO
MONTANA AWOS SUMMARY
NATIONAL WEATHER SERVICE MISSOULA MT
1123 AM MDT WED SEP 17 2014

Montana AWOS Reports

LAUREL      |K6S8 171715Z AUTO 21007KT 40SM 24/09 A2994 RMK AO1 T02440089
ROUNDUP     |KRPX 171715Z AUTO 22009KT 40SM 23/09 A2986 RMK AO1 T02330094






000
SXUS55 KMSO 171713
OSOMSO
MONTANA AWOS SUMMARY
NATIONAL WEATHER SERVICE MISSOULA MT
1113 AM MDT WED SEP 17 2014

Montana AWOS Reports

MALTA       |KM75 171655Z AUTO 00000KT 40SM 19/09 A2986 RMK AO1 T01890094






000
SXUS55 KMSO 171704
OSOMSO
MONTANA AWOS SUMMARY
NATIONAL WEATHER SERVICE MISSOULA MT
1103 AM MDT WED SEP 17 2014

Montana AWOS Reports

LAUREL      |K6S8 171655Z AUTO 20008KT 40SM 23/08 A2995 RMK AO1 T02330078
ROUNDUP     |KRPX 171655Z AUTO 19008KT 40SM 22/11 A2986 RMK AO1 T02220106
PLAINS      |KS34 171655Z AUTO 00000KT 25SM 18/06 A2990 RMK AO1 T01780061
SCOBEY      |K9S2 171655Z AUTO 17006KT 40SM 21/06 A2993 RMK AO1 T02110056






000
SXUS55 KMSO 171643
OSOMSO
MONTANA AWOS SUMMARY
NATIONAL WEATHER SERVICE MISSOULA MT
1043 AM MDT WED SEP 17 2014

Montana AWOS Reports

LAUREL      |K6S8 171635Z AUTO 21009G13KT 40SM 23/08 A2994 RMK AO1 T02280083
ROUNDUP     |KRPX 171635Z AUTO 20006KT 40SM 21/10 A2986 RMK AO1 T02110100






000
SXUS55 KMSO 171623
OSOMSO
MONTANA AWOS SUMMARY
NATIONAL WEATHER SERVICE MISSOULA MT
1023 AM MDT WED SEP 17 2014

Montana AWOS Reports

LAUREL      |K6S8 171615Z AUTO 21009G13KT 40SM 22/09 A2994 RMK AO1 T02170089
ROUNDUP     |KRPX 171615Z AUTO 20005KT 40SM 21/10 A2985 RMK AO1 T02110100






000
SXUS55 KMSO 171613
OSOMSO
MONTANA AWOS SUMMARY
NATIONAL WEATHER SERVICE MISSOULA MT
1013 AM MDT WED SEP 17 2014

Montana AWOS Reports

LAUREL      |K6S8 171555Z AUTO 19009G15KT 40SM 21/09 A2994 RMK AO1 T02110089
ROUNDUP     |KRPX 171555Z AUTO 21004KT 40SM 19/10 A2985 RMK AO1 T01940100
MALTA       |KM75 171555Z AUTO 06007KT 40SM 17/08 A2986 RMK AO1 T01670083
PLAINS      |KS34 171555Z AUTO 00000KT 25SM 15/06 A2990 RMK AO1 T01500061






000
SXUS55 KMSO 171553
OSOMSO
MONTANA AWOS SUMMARY
NATIONAL WEATHER SERVICE MISSOULA MT
953 AM MDT WED SEP 17 2014

Montana AWOS Reports

LAUREL      |K6S8 171535Z AUTO 21007KT 40SM 21/08 A2995 RMK AO1 T02110083
MALTA       |KM75 171455Z AUTO 00000KT 40SM 14/08 A2985 RMK AO1 T01390078
SCOBEY      |K9S2 171455Z AUTO 00000KT 40SM 09/04 A2992 RMK AO1 T00940044






000
SXUS55 KMSO 171543
OSOMSO
MONTANA AWOS SUMMARY
NATIONAL WEATHER SERVICE MISSOULA MT
943 AM MDT WED SEP 17 2014

Montana AWOS Reports

ROUNDUP     |KRPX 171535Z AUTO 18009G13KT 40SM 18/09 A2984 RMK AO1 T01780094






000
SXUS55 KMSO 171523
OSOMSO
MONTANA AWOS SUMMARY
NATIONAL WEATHER SERVICE MISSOULA MT
923 AM MDT WED SEP 17 2014

Montana AWOS Reports

ROUNDUP     |KRPX 171515Z AUTO 20007KT 40SM 17/09 A2985 RMK AO1 T01670089
LAUREL      |K6S8 171515Z AUTO 23004KT 40SM 19/07 A2995 RMK AO1 T01940072






000
SXUS55 KMSO 171504
OSOMSO
MONTANA AWOS SUMMARY
NATIONAL WEATHER SERVICE MISSOULA MT
903 AM MDT WED SEP 17 2014

Montana AWOS Reports

LAUREL      |K6S8 171455Z AUTO 21008KT 40SM 18/08 A2995 RMK AO1 T01830078
ROUNDUP     |KRPX 171455Z AUTO 20009G13KT 40SM 15/08 A2986 RMK AO1 T01500078






000
SXUS55 KMSO 171453
OSOMSO
MONTANA AWOS SUMMARY
NATIONAL WEATHER SERVICE MISSOULA MT
853 AM MDT WED SEP 17 2014

Montana AWOS Reports

SCOBEY      |K9S2 171355Z AUTO 00000KT 25SM 04/02 A2993 RMK AO1 T00440017






000
SXUS55 KMSO 171443
OSOMSO
MONTANA AWOS SUMMARY
NATIONAL WEATHER SERVICE MISSOULA MT
843 AM MDT WED SEP 17 2014

Montana AWOS Reports

LAUREL      |K6S8 171435Z AUTO 23008KT 40SM 17/07 A2995 RMK AO1 T01670072
ROUNDUP     |KRPX 171435Z AUTO 20011KT 40SM 14/08 A2985 RMK AO1 T01440078






000
SXUS55 KMSO 171423
OSOMSO
MONTANA AWOS SUMMARY
NATIONAL WEATHER SERVICE MISSOULA MT
823 AM MDT WED SEP 17 2014

Montana AWOS Reports

LAUREL      |K6S8 171415Z AUTO 21006KT 40SM 17/07 A2995 RMK AO1 T01670072
ROUNDUP     |KRPX 171415Z AUTO 21005KT 40SM 14/07 A2986 RMK AO1 T01440072






000
SXUS55 KMSO 171413
OSOMSO
MONTANA AWOS SUMMARY
NATIONAL WEATHER SERVICE MISSOULA MT
813 AM MDT WED SEP 17 2014

Montana AWOS Reports

LAUREL      |K6S8 171355Z AUTO 27005KT 40SM 14/07 A2995 RMK AO1 T01440072
ROUNDUP     |KRPX 171355Z AUTO 21005KT 40SM 14/07 A2985 RMK AO1 T01390067






000
SXUS55 KMSO 171403
OSOMSO
MONTANA AWOS SUMMARY
NATIONAL WEATHER SERVICE MISSOULA MT
803 AM MDT WED SEP 17 2014

Montana AWOS Reports

PLAINS      |KS34 171355Z AUTO 00000KT 25SM 07/02 A2991 RMK AO1 T00670022






000
SXUS55 KMSO 171343
OSOMSO
MONTANA AWOS SUMMARY
NATIONAL WEATHER SERVICE MISSOULA MT
743 AM MDT WED SEP 17 2014

Montana AWOS Reports

ROUNDUP     |KRPX 171335Z AUTO 20008KT 40SM 14/07 A2985 RMK AO1 T01440067
LAUREL      |K6S8 171335Z AUTO 23004KT 40SM 13/07 A2994 RMK AO1 T01330067






000
SXUS55 KMSO 171323
OSOMSO
MONTANA AWOS SUMMARY
NATIONAL WEATHER SERVICE MISSOULA MT
723 AM MDT WED SEP 17 2014

Montana AWOS Reports

ROUNDUP     |KRPX 171315Z AUTO 21006KT 40SM 14/07 A2984 RMK AO1 T01440067
LAUREL      |K6S8 171315Z AUTO 00000KT 40SM 13/06 A2994 RMK AO1 T01330056






000
SXUS55 KMSO 171303
OSOMSO
MONTANA AWOS SUMMARY
NATIONAL WEATHER SERVICE MISSOULA MT
703 AM MDT WED SEP 17 2014

Montana AWOS Reports

LAUREL      |K6S8 171255Z AUTO 00000KT 40SM 14/07 A2994 RMK AO1 T01440067
ROUNDUP     |KRPX 171255Z AUTO 20007KT 40SM 14/07 A2984 RMK AO1 T01440067
SCOBEY      |K9S2 171255Z AUTO 00000KT 25SM 02/M01 A2993 RMK AO1 T00221010
PLAINS      |KS34 171255Z AUTO 00000KT 25SM 07/03 A2989 RMK AO1 T00670028






000
SXUS55 KMSO 171243
OSOMSO
MONTANA AWOS SUMMARY
NATIONAL WEATHER SERVICE MISSOULA MT
643 AM MDT WED SEP 17 2014

Montana AWOS Reports

LAUREL      |K6S8 171235Z AUTO 22004KT 40SM 16/06 A2994 RMK AO1 T01610061
ROUNDUP     |KRPX 171235Z AUTO 21007KT 40SM 13/07 A2984 RMK AO1 T01330072






000
SXUS55 KMSO 171224
OSOMSO
MONTANA AWOS SUMMARY
NATIONAL WEATHER SERVICE MISSOULA MT
623 AM MDT WED SEP 17 2014

Montana AWOS Reports

LAUREL      |K6S8 171215Z AUTO 25004KT 40SM 17/07 A2994 RMK AO1 T01670072
ROUNDUP     |KRPX 171215Z AUTO 00000KT 40SM 14/07 A2983 RMK AO1 T01390072






000
SXUS55 KMSO 171203
OSOMSO
MONTANA AWOS SUMMARY
NATIONAL WEATHER SERVICE MISSOULA MT
603 AM MDT WED SEP 17 2014

Montana AWOS Reports

LAUREL      |K6S8 171155Z AUTO 00000KT 40SM 17/07 A2994 RMK AO1 T01670072
ROUNDUP     |KRPX 171155Z AUTO 00000KT 40SM 14/07 A2984 RMK AO1 T01390072






000
SXUS55 KMSO 171153
OSOMSO
MONTANA AWOS SUMMARY
NATIONAL WEATHER SERVICE MISSOULA MT
552 AM MDT WED SEP 17 2014

Montana AWOS Reports

LAUREL      |K6S8 171135Z AUTO 21006KT 40SM 16/07 A2994 RMK AO1 T01610067






000
SXUS55 KMSO 171143
OSOMSO
MONTANA AWOS SUMMARY
NATIONAL WEATHER SERVICE MISSOULA MT
543 AM MDT WED SEP 17 2014

Montana AWOS Reports

ROUNDUP     |KRPX 171135Z AUTO 19007KT 40SM 13/07 A2984 RMK AO1 T01280072
MALTA       |KM75 171135Z AUTO 15004KT 40SM 09/07 A2984 RMK AO1 T00940067






000
SXUS55 KMSO 171123
OSOMSO
MONTANA AWOS SUMMARY
NATIONAL WEATHER SERVICE MISSOULA MT
523 AM MDT WED SEP 17 2014

Montana AWOS Reports

LAUREL      |K6S8 171115Z AUTO 25005KT 40SM 15/07 A2993 RMK AO1 T01500067
ROUNDUP     |KRPX 171115Z AUTO 00000KT 40SM 12/07 A2983 RMK AO1 T01220067






000
SXUS55 KMSO 171113
OSOMSO
MONTANA AWOS SUMMARY
NATIONAL WEATHER SERVICE MISSOULA MT
513 AM MDT WED SEP 17 2014

Montana AWOS Reports

SCOBEY      |K9S2 171055Z AUTO 00000KT 25SM 03/M01 A2992 RMK AO1 T00281005
MALTA       |KM75 171055Z AUTO 00000KT 40SM 10/07 A2984 RMK AO1 T01000072






000
SXUS55 KMSO 171103
OSOMSO
MONTANA AWOS SUMMARY
NATIONAL WEATHER SERVICE MISSOULA MT
502 AM MDT WED SEP 17 2014

Montana AWOS Reports

ROUNDUP     |KRPX 171055Z AUTO 40SM 12/07 A2986 RMK AO1 T01220067
PLAINS      |KS34 171055Z AUTO 00000KT 25SM 08/04 A2989 RMK AO1 T00830044
LAUREL      |K6S8 171055Z AUTO 25005KT 40SM 14/07 A2992 RMK AO1 T01440067






000
SXUS55 KMSO 171043
OSOMSO
MONTANA AWOS SUMMARY
NATIONAL WEATHER SERVICE MISSOULA MT
443 AM MDT WED SEP 17 2014

Montana AWOS Reports

ROUNDUP     |KRPX 171035Z AUTO 20014G19KT 40SM 12/07 A2985 RMK AO1 T01170067
LAUREL      |K6S8 171035Z AUTO 00000KT 40SM 17/07 A2993 RMK AO1 T01670072






000
SXUS55 KMSO 171024
OSOMSO
MONTANA AWOS SUMMARY
NATIONAL WEATHER SERVICE MISSOULA MT
423 AM MDT WED SEP 17 2014

Montana AWOS Reports

ROUNDUP     |KRPX 171015Z AUTO 19011G16KT 40SM 12/07 A2985 RMK AO1 T01220067
LAUREL      |K6S8 171015Z AUTO 00000KT 15SM 18/07 A2994 RMK AO1 T01780067






000
SXUS55 KMSO 171013
OSOMSO
MONTANA AWOS SUMMARY
NATIONAL WEATHER SERVICE MISSOULA MT
412 AM MDT WED SEP 17 2014

Montana AWOS Reports

SCOBEY      |K9S2 170955Z AUTO 00000KT 25SM 03/M01 A2992 RMK AO1 T00331005
PLAINS      |KS34 170955Z AUTO 00000KT 25SM 09/06 A2990 RMK AO1 T00940056






000
SXUS55 KMSO 171003
OSOMSO
MONTANA AWOS SUMMARY
NATIONAL WEATHER SERVICE MISSOULA MT
403 AM MDT WED SEP 17 2014

Montana AWOS Reports

LAUREL      |K6S8 170955Z AUTO 23005KT 10SM 19/08 A2995 RMK AO1 T01890078
ROUNDUP     |KRPX 170955Z AUTO 20012KT 40SM 12/07 A2985 RMK AO1 T01220072






000
SXUS55 KMSO 170943
OSOMSO
MONTANA AWOS SUMMARY
NATIONAL WEATHER SERVICE MISSOULA MT
342 AM MDT WED SEP 17 2014

Montana AWOS Reports

LAUREL      |K6S8 170935Z AUTO 25006KT 40SM 18/06 A2995 RMK AO1 T01830056
ROUNDUP     |KRPX 170935Z AUTO 21007KT 40SM 12/07 A2985 RMK AO1 T01170067






000
SXUS55 KMSO 170923
OSOMSO
MONTANA AWOS SUMMARY
NATIONAL WEATHER SERVICE MISSOULA MT
323 AM MDT WED SEP 17 2014

Montana AWOS Reports

LAUREL      |K6S8 170915Z AUTO 28006KT 40SM 16/06 A2994 RMK AO1 T01610056
ROUNDUP     |KRPX 170915Z AUTO 20005KT 40SM 12/07 A2985 RMK AO1 T01220072
MALTA       |KM75 170855Z AUTO 00000KT 40SM 09/07 A2986 RMK AO1 T00940067






000
SXUS55 KMSO 170903
OSOMSO
MONTANA AWOS SUMMARY
NATIONAL WEATHER SERVICE MISSOULA MT
303 AM MDT WED SEP 17 2014

Montana AWOS Reports

MALTA       |KM75 170855Z AUTO 00000KT 40SM 09/07 A2986 RMK AO1 T00940067
LAUREL      |K6S8 170855Z AUTO 23005KT 40SM 16/06 A2993 RMK AO1 T01560061
ROUNDUP     |KRPX 170855Z AUTO 20009KT 40SM 12/07 A2985 RMK AO1 T01220072
SCOBEY      |K9S2 170855Z AUTO 00000KT 25SM 05/01 A2992 RMK AO1 T00500006
PLAINS      |KS34 170855Z AUTO 00000KT 25SM 11/06 A2990 RMK AO1 T01060056






000
SXUS55 KMSO 170844
OSOMSO
MONTANA AWOS SUMMARY
NATIONAL WEATHER SERVICE MISSOULA MT
243 AM MDT WED SEP 17 2014

Montana AWOS Reports

LAUREL      |K6S8 170835Z AUTO 24004KT 25SM 14/06 A2994 RMK AO1 T01390061
ROUNDUP     |KRPX 170835Z AUTO 20008KT 40SM 12/07 A2986 RMK AO1 T01220072






000
SXUS55 KMSO 170833
OSOMSO
MONTANA AWOS SUMMARY
NATIONAL WEATHER SERVICE MISSOULA MT
233 AM MDT WED SEP 17 2014

Montana AWOS Reports

MALTA       |KM75 170755Z AUTO 00000KT 40SM 11/08 A2986 RMK AO1 T01060078






000
SXUS55 KMSO 170823
OSOMSO
MONTANA AWOS SUMMARY
NATIONAL WEATHER SERVICE MISSOULA MT
223 AM MDT WED SEP 17 2014

Montana AWOS Reports

LAUREL      |K6S8 170815Z AUTO 00000KT 40SM 14/06 A2995 RMK AO1 T01390061
ROUNDUP     |KRPX 170815Z AUTO 21007KT 40SM 12/07 A2986 RMK AO1 T01170072






000
SXUS55 KMSO 170804
OSOMSO
MONTANA AWOS SUMMARY
NATIONAL WEATHER SERVICE MISSOULA MT
203 AM MDT WED SEP 17 2014

Montana AWOS Reports

LAUREL      |K6S8 170755Z AUTO 22004KT 40SM 14/06 A2995 RMK AO1 T01440061
ROUNDUP     |KRPX 170755Z AUTO 21006KT 40SM 12/07 A2986 RMK AO1 T01170072
PLAINS      |KS34 170755Z AUTO 00000KT 25SM 12/06 A2990 RMK AO1 T01170061
SCOBEY      |K9S2 170755Z AUTO 00000KT 40SM 07/01 A2992 RMK AO1 T00670011






000
SXUS55 KMSO 170743
OSOMSO
MONTANA AWOS SUMMARY
NATIONAL WEATHER SERVICE MISSOULA MT
143 AM MDT WED SEP 17 2014

Montana AWOS Reports

ROUNDUP     |KRPX 170735Z AUTO 21005KT 40SM 13/08 A2987 RMK AO1 T01280078
LAUREL      |K6S8 170735Z AUTO 00000KT 15SM 16/06 A2995 RMK AO1 T01560056






000
SXUS55 KMSO 170723
OSOMSO
MONTANA AWOS SUMMARY
NATIONAL WEATHER SERVICE MISSOULA MT
123 AM MDT WED SEP 17 2014

Montana AWOS Reports

ROUNDUP     |KRPX 170715Z AUTO 20008KT 40SM 12/07 A2987 RMK AO1 T01220072
LAUREL      |K6S8 170715Z AUTO 00000KT 40SM 16/06 A2996 RMK AO1 T01610056






000
SXUS55 KMSO 170713
OSOMSO
MONTANA AWOS SUMMARY
NATIONAL WEATHER SERVICE MISSOULA MT
113 AM MDT WED SEP 17 2014

Montana AWOS Reports

SCOBEY      |K9S2 170655Z AUTO 00000KT 40SM 08/02 A2992 RMK AO1 T00830022






000
SXUS55 KMSO 170703
OSOMSO
MONTANA AWOS SUMMARY
NATIONAL WEATHER SERVICE MISSOULA MT
103 AM MDT WED SEP 17 2014

Montana AWOS Reports

LAUREL      |K6S8 170655Z AUTO 00000KT 40SM 16/05 A2995 RMK AO1 T01610050
ROUNDUP     |KRPX 170655Z AUTO 00000KT 40SM 12/07 A2986 RMK AO1 T01220072






000
SXUS55 KMSO 170653
OSOMSO
MONTANA AWOS SUMMARY
NATIONAL WEATHER SERVICE MISSOULA MT
1253 AM MDT WED SEP 17 2014

Montana AWOS Reports

ROUNDUP     |KRPX 170635Z AUTO 17004KT 40SM 13/07 A2987 RMK AO1 T01330072






000
SXUS55 KMSO 170643
OSOMSO
MONTANA AWOS SUMMARY
NATIONAL WEATHER SERVICE MISSOULA MT
1243 AM MDT WED SEP 17 2014

Montana AWOS Reports

LAUREL      |K6S8 170635Z AUTO 00000KT 40SM 16/06 A2995 RMK AO1 T01610056
MALTA       |KM75 170635Z AUTO 00000KT 40SM 11/08 A2987 RMK AO1 T01060078






000
SXUS55 KMSO 170623
OSOMSO
MONTANA AWOS SUMMARY
NATIONAL WEATHER SERVICE MISSOULA MT
1222 AM MDT WED SEP 17 2014

Montana AWOS Reports

ROUNDUP     |KRPX 170615Z AUTO 05004KT 40SM 14/07 A2986 RMK AO1 T01390072
LAUREL      |K6S8 170615Z AUTO 29004KT 25SM 16/05 A2994 RMK AO1 T01560050






000
SXUS55 KMSO 170603
OSOMSO
MONTANA AWOS SUMMARY
NATIONAL WEATHER SERVICE MISSOULA MT
1203 AM MDT WED SEP 17 2014

Montana AWOS Reports

LAUREL      |K6S8 170555Z AUTO 30004KT 40SM 16/06 A2994 RMK AO1 T01610056
ROUNDUP     |KRPX 170555Z AUTO 05004KT 40SM 14/07 A2987 RMK AO1 T01390067
PLAINS      |KS34 170555Z AUTO 00000KT 25SM 15/07 A2990 RMK AO1 T01500072
SCOBEY      |K9S2 170555Z AUTO 00000KT 40SM 08/01 A2992 RMK AO1 T00830011






000
SXUS55 KMSO 170543
OSOMSO
MONTANA AWOS SUMMARY
NATIONAL WEATHER SERVICE MISSOULA MT
1143 PM MDT TUE SEP 16 2014

Montana AWOS Reports

LAUREL      |K6S8 170535Z AUTO 30004KT 40SM 18/05 A2994 RMK AO1 T01830050
ROUNDUP     |KRPX 170535Z AUTO 05004KT 40SM 16/07 A2986 RMK AO1 T01610072






000
SXUS55 KMSO 170523
OSOMSO
MONTANA AWOS SUMMARY
NATIONAL WEATHER SERVICE MISSOULA MT
1122 PM MDT TUE SEP 16 2014

Montana AWOS Reports

LAUREL      |K6S8 170515Z AUTO 00000KT 40SM 17/06 A2994 RMK AO1 T01670056
ROUNDUP     |KRPX 170515Z AUTO 00000KT 40SM 17/07 A2987 RMK AO1 T01720067






000
SXUS55 KMSO 170513
OSOMSO
MONTANA AWOS SUMMARY
NATIONAL WEATHER SERVICE MISSOULA MT
1113 PM MDT TUE SEP 16 2014

Montana AWOS Reports

SCOBEY      |K9S2 170455Z AUTO 00000KT 40SM 09/02 A2992 RMK AO1 T00940017
PLAINS      |KS34 170455Z AUTO 00000KT 25SM 16/08 A2990 RMK AO1 T01610078






000
SXUS55 KMSO 170503
OSOMSO
MONTANA AWOS SUMMARY
NATIONAL WEATHER SERVICE MISSOULA MT
1103 PM MDT TUE SEP 16 2014

Montana AWOS Reports

LAUREL      |K6S8 170455Z AUTO 00000KT 25SM 18/06 A2994 RMK AO1 T01780061
ROUNDUP     |KRPX 170455Z AUTO 00000KT 40SM 17/07 A2987 RMK AO1 T01720067
MALTA       |KM75 170455Z AUTO 00000KT 40SM 12/08 A2986 RMK AO1 T01170083






000
SXUS55 KMSO 170443
OSOMSO
MONTANA AWOS SUMMARY
NATIONAL WEATHER SERVICE MISSOULA MT
1043 PM MDT TUE SEP 16 2014

Montana AWOS Reports

LAUREL      |K6S8 170435Z AUTO 00000KT 25SM 18/06 A2995 RMK AO1 T01830056
ROUNDUP     |KRPX 170435Z AUTO 00000KT 40SM 18/07 A2987 RMK AO1 T01780072
MALTA       |KM75 170435Z AUTO 00000KT 40SM 13/09 A2986 RMK AO1 T01280094






000
SXUS55 KMSO 170424
OSOMSO
MONTANA AWOS SUMMARY
NATIONAL WEATHER SERVICE MISSOULA MT
1023 PM MDT TUE SEP 16 2014

Montana AWOS Reports

LAUREL      |K6S8 170415Z AUTO 00000KT 15SM 19/06 A2995 RMK AO1 T01890056
ROUNDUP     |KRPX 170415Z AUTO 00000KT 40SM 18/07 A2987 RMK AO1 T01780072






000
SXUS55 KMSO 170403
OSOMSO
MONTANA AWOS SUMMARY
NATIONAL WEATHER SERVICE MISSOULA MT
1003 PM MDT TUE SEP 16 2014

Montana AWOS Reports

LAUREL      |K6S8 170355Z AUTO 00000KT 40SM 20/05 A2994 RMK AO1 T02000050
ROUNDUP     |KRPX 170355Z AUTO 00000KT 40SM 18/07 A2987 RMK AO1 T01780072
MALTA       |KM75 170355Z AUTO 00000KT 40SM 13/09 A2986 RMK AO1 T01280094
SCOBEY      |K9S2 170355Z AUTO 00000KT 25SM 11/02 A2991 RMK AO1 T01110022
PLAINS      |KS34 170355Z AUTO 00000KT 25SM 17/07 A2990 RMK AO1 T01720067






000
SXUS55 KMSO 170343
OSOMSO
MONTANA AWOS SUMMARY
NATIONAL WEATHER SERVICE MISSOULA MT
943 PM MDT TUE SEP 16 2014

Montana AWOS Reports

LAUREL      |K6S8 170335Z AUTO 00000KT 40SM 21/05 A2994 RMK AO1 T02110050
ROUNDUP     |KRPX 170335Z AUTO 00000KT 40SM 17/08 A2987 RMK AO1 T01720078
MALTA       |KM75 170335Z AUTO 00000KT 40SM 13/10 A2986 RMK AO1 T01330100






000
SXUS55 KMSO 170323
OSOMSO
MONTANA AWOS SUMMARY
NATIONAL WEATHER SERVICE MISSOULA MT
923 PM MDT TUE SEP 16 2014

Montana AWOS Reports

MALTA       |KM75 170315Z AUTO 00000KT 40SM 14/09 A2986 RMK AO1 T01390094
LAUREL      |K6S8 170315Z AUTO 00000KT 10SM 21/05 A2994 RMK AO1 T02060050
ROUNDUP     |KRPX 170315Z AUTO 00000KT 40SM 17/08 A2987 RMK AO1 T01720078






000
SXUS55 KMSO 170303
OSOMSO
MONTANA AWOS SUMMARY
NATIONAL WEATHER SERVICE MISSOULA MT
903 PM MDT TUE SEP 16 2014

Montana AWOS Reports

LAUREL      |K6S8 170255Z AUTO 00000KT 25SM 19/04 A2994 RMK AO1 T01940039
ROUNDUP     |KRPX 170255Z AUTO 00000KT 40SM 18/07 A2987 RMK AO1 T01780072
MALTA       |KM75 170255Z AUTO 00000KT 40SM 15/11 A2986 RMK AO1 T01500106
SCOBEY      |K9S2 170255Z AUTO 00000KT 40SM 13/02 A2991 RMK AO1 T01280022
PLAINS      |KS34 170255Z AUTO 00000KT 25SM 21/06 A2989 RMK AO1 T02060056






000
SXUS55 KMSO 170243
OSOMSO
MONTANA AWOS SUMMARY
NATIONAL WEATHER SERVICE MISSOULA MT
843 PM MDT TUE SEP 16 2014

Montana AWOS Reports

LAUREL      |K6S8 170235Z AUTO 27004KT 25SM 21/04 A2994 RMK AO1 T02110039
ROUNDUP     |KRPX 170235Z AUTO 00000KT 40SM 19/08 A2987 RMK AO1 T01890078
MALTA       |KM75 170235Z AUTO 00000KT 40SM 16/11 A2986 RMK AO1 T01560106






000
SXUS55 KMSO 170223
OSOMSO
MONTANA AWOS SUMMARY
NATIONAL WEATHER SERVICE MISSOULA MT
823 PM MDT TUE SEP 16 2014

Montana AWOS Reports

LAUREL      |K6S8 170215Z AUTO 00000KT 1SM 21/03 A2994 RMK AO1 T02060033
ROUNDUP     |KRPX 170215Z AUTO 00000KT 40SM 20/08 A2986 RMK AO1 T02000078
MALTA       |KM75 170215Z AUTO 00000KT 40SM 17/12 A2986 RMK AO1 T01720117






000
SXUS55 KMSO 170203
OSOMSO
MONTANA AWOS SUMMARY
NATIONAL WEATHER SERVICE MISSOULA MT
803 PM MDT TUE SEP 16 2014

Montana AWOS Reports

ROUNDUP     |KRPX 170155Z AUTO 00000KT 40SM 21/08 A2986 RMK AO1 T02060083
MALTA       |KM75 170155Z AUTO 00000KT 3SM 18/12 A2986 RMK AO1 T01830117






000
SXUS55 KMSO 170153
OSOMSO
MONTANA AWOS SUMMARY
NATIONAL WEATHER SERVICE MISSOULA MT
753 PM MDT TUE SEP 16 2014

Montana AWOS Reports

ROUNDUP     |KRPX 170135Z AUTO 00000KT 40SM 21/08 A2986 RMK AO1 T02110078






000
SXUS55 KMSO 170143
OSOMSO
MONTANA AWOS SUMMARY
NATIONAL WEATHER SERVICE MISSOULA MT
743 PM MDT TUE SEP 16 2014

Montana AWOS Reports

LAUREL      |K6S8 170135Z AUTO 00000KT 3/4SM 22/04 A2995 RMK AO1 T02170039






000
SXUS55 KMSO 170123
OSOMSO
MONTANA AWOS SUMMARY
NATIONAL WEATHER SERVICE MISSOULA MT
723 PM MDT TUE SEP 16 2014

Montana AWOS Reports

LAUREL      |K6S8 170115Z AUTO 22005KT 1SM 24/04 A2995 RMK AO1 T02390039
ROUNDUP     |KRPX 170115Z AUTO 00000KT 40SM 22/08 A2987 RMK AO1 T02170078






000
SXUS55 KMSO 170113
OSOMSO
MONTANA AWOS SUMMARY
NATIONAL WEATHER SERVICE MISSOULA MT
713 PM MDT TUE SEP 16 2014

Montana AWOS Reports

ROUNDUP     |KRPX 170055Z AUTO 00000KT 40SM 22/07 A2987 RMK AO1 T02170072






000
SXUS55 KMSO 170103
OSOMSO
MONTANA AWOS SUMMARY
NATIONAL WEATHER SERVICE MISSOULA MT
702 PM MDT TUE SEP 16 2014

Montana AWOS Reports

LAUREL      |K6S8 170055Z AUTO 00000KT 3/4SM 23/04 A2995 RMK AO1 T02330039
MALTA       |KM75 170055Z AUTO 00000KT 40SM 23/13 A2986 RMK AO1 T02330133
SCOBEY      |K9S2 170055Z AUTO 00000KT 15SM 20/03 A2991 RMK AO1 T02000033
PLAINS      |KS34 170055Z AUTO 00000KT 25SM 27/06 A2989 RMK AO1 T02670061






000
SXUS55 KMSO 170043
OSOMSO
MONTANA AWOS SUMMARY
NATIONAL WEATHER SERVICE MISSOULA MT
643 PM MDT TUE SEP 16 2014

Montana AWOS Reports

LAUREL      |K6S8 170035Z AUTO 00000KT 1/2SM 26/04 A2995 RMK AO1 T02560044
ROUNDUP     |KRPX 170035Z AUTO 00000KT 40SM 23/08 A2987 RMK AO1 T02280078
MALTA       |KM75 170035Z AUTO 00000KT 40SM 26/13 A2985 RMK AO1 T02560133






000
SXUS55 KMSO 170024
OSOMSO
MONTANA AWOS SUMMARY
NATIONAL WEATHER SERVICE MISSOULA MT
623 PM MDT TUE SEP 16 2014

Montana AWOS Reports

LAUREL      |K6S8 170015Z AUTO 00000KT 2 1/2SM 27/05 A2995 RMK AO1 T02720050
ROUNDUP     |KRPX 170015Z AUTO 00000KT 25SM 24/09 A2987 RMK AO1 T02390089






000
SXUS55 KMSO 170004
OSOMSO
MONTANA AWOS SUMMARY
NATIONAL WEATHER SERVICE MISSOULA MT
603 PM MDT TUE SEP 16 2014

Montana AWOS Reports

LAUREL      |K6S8 162355Z AUTO 00000KT 1 1/2SM 29/04 A2994 RMK AO1 T02890039
ROUNDUP     |KRPX 162355Z AUTO 00000KT 40SM 24/08 A2987 RMK AO1 T02440078
MALTA       |KM75 162355Z AUTO 00000KT 40SM 27/09 A2986 RMK AO1 T02670089
SCOBEY      |K9S2 162355Z AUTO 00000KT 40SM 23/03 A2991 RMK AO1 T02330033
MALTA       |KM75 162355Z AUTO 00000KT 40SM 27/09 A2986 RMK AO1 T02670089
PLAINS      |KS34 162355Z AUTO 00000KT 25SM 27/04 A2989 RMK AO1 T02720044






000
SXUS55 KMSO 162344
OSOMSO
MONTANA AWOS SUMMARY
NATIONAL WEATHER SERVICE MISSOULA MT
543 PM MDT TUE SEP 16 2014

Montana AWOS Reports

LAUREL      |K6S8 162335Z AUTO 00000KT 15SM 30/02 A2994 RMK AO1 T03000022
ROUNDUP     |KRPX 162335Z AUTO 00000KT 40SM 24/07 A2987 RMK AO1 T02440072






000
SXUS55 KMSO 162333
OSOMSO
MONTANA AWOS SUMMARY
NATIONAL WEATHER SERVICE MISSOULA MT
533 PM MDT TUE SEP 16 2014

Montana AWOS Reports

SCOBEY      |K9S2 162255Z AUTO 19006KT 40SM 24/04 A2992 RMK AO1 T02390039






000
SXUS55 KMSO 162324
OSOMSO
MONTANA AWOS SUMMARY
NATIONAL WEATHER SERVICE MISSOULA MT
523 PM MDT TUE SEP 16 2014

Montana AWOS Reports

MALTA       |KM75 162255Z AUTO 00000KT 40SM 26/08 A2986 RMK AO1 T02560083
LAUREL      |K6S8 162315Z AUTO 00000KT 40SM 30/02 A2994 RMK AO1 T03000022
ROUNDUP     |KRPX 162315Z AUTO 04004KT 40SM 25/06 A2987 RMK AO1 T02500056






000
SXUS55 KMSO 162313
OSOMSO
MONTANA AWOS SUMMARY
NATIONAL WEATHER SERVICE MISSOULA MT
513 PM MDT TUE SEP 16 2014

Montana AWOS Reports

PLAINS      |KS34 162255Z AUTO 00000KT 25SM 28/06 A2990 RMK AO1 T02780056






000
SXUS55 KMSO 162303
OSOMSO
MONTANA AWOS SUMMARY
NATIONAL WEATHER SERVICE MISSOULA MT
503 PM MDT TUE SEP 16 2014

Montana AWOS Reports

LAUREL      |K6S8 162255Z AUTO 00000KT 25SM 29/03 A2995 RMK AO1 T02940028






000
SXUS55 KMSO 162253
OSOMSO
MONTANA AWOS SUMMARY
NATIONAL WEATHER SERVICE MISSOULA MT
452 PM MDT TUE SEP 16 2014

Montana AWOS Reports

ROUNDUP     |KRPX 162235Z AUTO 04006KT 40SM 27/06 A2987 RMK AO1 T02670056






000
SXUS55 KMSO 162243
OSOMSO
MONTANA AWOS SUMMARY
NATIONAL WEATHER SERVICE MISSOULA MT
443 PM MDT TUE SEP 16 2014

Montana AWOS Reports

LAUREL      |K6S8 162235Z AUTO 00000KT 10SM 30/02 A2995 RMK AO1 T03000022






000
SXUS55 KMSO 162224
OSOMSO
MONTANA AWOS SUMMARY
NATIONAL WEATHER SERVICE MISSOULA MT
423 PM MDT TUE SEP 16 2014

Montana AWOS Reports

LAUREL      |K6S8 162215Z AUTO 00000KT 15SM 30/02 A2995 RMK AO1 T03000022
ROUNDUP     |KRPX 162215Z AUTO 05005KT 40SM 27/07 A2987 RMK AO1 T02720067






000
SXUS55 KMSO 162214
OSOMSO
MONTANA AWOS SUMMARY
NATIONAL WEATHER SERVICE MISSOULA MT
413 PM MDT TUE SEP 16 2014

Montana AWOS Reports

PLAINS      |KS34 162155Z AUTO 00000KT 25SM 27/03 A2992 RMK AO1 T02720033
MALTA       |KM75 162155Z AUTO 00000KT 40SM 25/08 A2988 RMK AO1 T02500083






000
SXUS55 KMSO 162203
OSOMSO
MONTANA AWOS SUMMARY
NATIONAL WEATHER SERVICE MISSOULA MT
403 PM MDT TUE SEP 16 2014

Montana AWOS Reports

LAUREL      |K6S8 162155Z AUTO 00000KT 40SM 29/03 A2996 RMK AO1 T02940028
ROUNDUP     |KRPX 162155Z AUTO 07004KT 40SM 28/06 A2987 RMK AO1 T02780061






000
SXUS55 KMSO 162153
OSOMSO
MONTANA AWOS SUMMARY
NATIONAL WEATHER SERVICE MISSOULA MT
353 PM MDT TUE SEP 16 2014

Montana AWOS Reports

MALTA       |KM75 162055Z AUTO 00000KT 40SM 25/08 A2989 RMK AO1 T02500083






000
SXUS55 KMSO 162143
OSOMSO
MONTANA AWOS SUMMARY
NATIONAL WEATHER SERVICE MISSOULA MT
343 PM MDT TUE SEP 16 2014

Montana AWOS Reports

LAUREL      |K6S8 162135Z AUTO 24004KT 25SM 29/03 A2996 RMK AO1 T02940033
ROUNDUP     |KRPX 162135Z AUTO 00000KT 25SM 28/04 A2987 RMK AO1 T02830044
MALTA       |KM75 162135Z AUTO 00000KT 40SM 25/08 A2988 RMK AO1 T02500078






000
SXUS55 KMSO 162123
OSOMSO
MONTANA AWOS SUMMARY
NATIONAL WEATHER SERVICE MISSOULA MT
323 PM MDT TUE SEP 16 2014

Montana AWOS Reports

LAUREL      |K6S8 162115Z AUTO 00000KT 40SM 29/03 A2997 RMK AO1 T02890028
ROUNDUP     |KRPX 162115Z AUTO 00000KT 7SM 28/04 A2988 RMK AO1 T02780044
MALTA       |KM75 162115Z AUTO 00000KT 40SM 25/09 A2989 RMK AO1 T02500089
PLAINS      |KS34 162055Z AUTO 00000KT 25SM 24/03 A2994 RMK AO1 T02440033






000
SXUS55 KMSO 162103
OSOMSO
MONTANA AWOS SUMMARY
NATIONAL WEATHER SERVICE MISSOULA MT
303 PM MDT TUE SEP 16 2014

Montana AWOS Reports

LAUREL      |K6S8 162055Z AUTO 15004KT 25SM 28/04 A2997 RMK AO1 T02830039
ROUNDUP     |KRPX 162055Z AUTO 00000KT 3SM 27/06 A2989 RMK AO1 T02670061
SCOBEY      |K9S2 162055Z AUTO 00000KT 40SM 23/03 A2994 RMK AO1 T02330033






000
SXUS55 KMSO 162044
OSOMSO
MONTANA AWOS SUMMARY
NATIONAL WEATHER SERVICE MISSOULA MT
243 PM MDT TUE SEP 16 2014

Montana AWOS Reports

LAUREL      |K6S8 162035Z AUTO 20006KT 15SM 29/03 A2998 RMK AO1 T02890028
ROUNDUP     |KRPX 162035Z AUTO 00000KT 40SM 27/04 A2989 RMK AO1 T02670044






000
SXUS55 KMSO 162024
OSOMSO
MONTANA AWOS SUMMARY
NATIONAL WEATHER SERVICE MISSOULA MT
223 PM MDT TUE SEP 16 2014

Montana AWOS Reports

PLAINS      |KS34 161955Z AUTO 00000KT 25SM 23/03 A2994 RMK AO1 T02330033
MALTA       |KM75 161955Z AUTO 00000KT 40SM 24/09 A2990 RMK AO1 T02390089
LAUREL      |K6S8 162015Z AUTO VRB05KT 25SM 29/04 A2998 RMK AO1 T02890039
ROUNDUP     |KRPX 162015Z AUTO 00000KT 25SM 27/04 A2989 RMK AO1 T02670044






000
SXUS55 KMSO 162013
OSOMSO
MONTANA AWOS SUMMARY
NATIONAL WEATHER SERVICE MISSOULA MT
213 PM MDT TUE SEP 16 2014

Montana AWOS Reports

SCOBEY      |K9S2 161955Z AUTO 00000KT 40SM 23/03 A2995 RMK AO1 T02280028






000
SXUS55 KMSO 162003
OSOMSO
MONTANA AWOS SUMMARY
NATIONAL WEATHER SERVICE MISSOULA MT
203 PM MDT TUE SEP 16 2014

Montana AWOS Reports

LAUREL      |K6S8 161955Z AUTO VRB05KT 15SM 29/04 A2998 RMK AO1 T02890044
ROUNDUP     |KRPX 161955Z AUTO 00000KT 3 1/2SM 26/04 A2990 RMK AO1 T02610039






000
SXUS55 KMSO 161944
OSOMSO
MONTANA AWOS SUMMARY
NATIONAL WEATHER SERVICE MISSOULA MT
143 PM MDT TUE SEP 16 2014

Montana AWOS Reports

LAUREL      |K6S8 161935Z AUTO 21008KT 15SM 27/03 A2998 RMK AO1 T02720033
ROUNDUP     |KRPX 161935Z AUTO 00000KT 4SM 26/06 A2990 RMK AO1 T02560056






000
SXUS55 KMSO 161924
OSOMSO
MONTANA AWOS SUMMARY
NATIONAL WEATHER SERVICE MISSOULA MT
123 PM MDT TUE SEP 16 2014

Montana AWOS Reports

LAUREL      |K6S8 161915Z AUTO 19009G13KT 25SM 27/04 A2999 RMK AO1 T02720044
ROUNDUP     |KRPX 161915Z AUTO 00000KT 40SM 24/07 A2990 RMK AO1 T02440067






000
SXUS55 KMSO 161913
OSOMSO
MONTANA AWOS SUMMARY
NATIONAL WEATHER SERVICE MISSOULA MT
113 PM MDT TUE SEP 16 2014

Montana AWOS Reports

MALTA       |KM75 161855Z AUTO 00000KT 40SM 23/11 A2991 RMK AO1 T02280106






000
SXUS55 KMSO 161903
OSOMSO
MONTANA AWOS SUMMARY
NATIONAL WEATHER SERVICE MISSOULA MT
103 PM MDT TUE SEP 16 2014

Montana AWOS Reports

LAUREL      |K6S8 161855Z AUTO 20009G14KT 25SM 27/05 A2999 RMK AO1 T02720050
ROUNDUP     |KRPX 161855Z AUTO 00000KT 40SM 23/06 A2990 RMK AO1 T02330061
PLAINS      |KS34 161855Z AUTO 00000KT 25SM 23/03 A2996 RMK AO1 T02330028
SCOBEY      |K9S2 161855Z AUTO 00000KT 40SM 22/03 A2996 RMK AO1 T02220028






000
SXUS55 KMSO 161843
OSOMSO
MONTANA AWOS SUMMARY
NATIONAL WEATHER SERVICE MISSOULA MT
1243 PM MDT TUE SEP 16 2014

Montana AWOS Reports

LAUREL      |K6S8 161835Z AUTO 19010G15KT 40SM 26/04 A2999 RMK AO1 T02610039
ROUNDUP     |KRPX 161835Z AUTO 00000KT 40SM 23/06 A2991 RMK AO1 T02280056






000
SXUS55 KMSO 161824
OSOMSO
MONTANA AWOS SUMMARY
NATIONAL WEATHER SERVICE MISSOULA MT
1223 PM MDT TUE SEP 16 2014

Montana AWOS Reports

LAUREL      |K6S8 161815Z AUTO 22011G17KT 40SM 26/05 A3000 RMK AO1 T02560050
ROUNDUP     |KRPX 161815Z AUTO 00000KT 40SM 22/06 A2991 RMK AO1 T02170061






000
SXUS55 KMSO 161814
OSOMSO
MONTANA AWOS SUMMARY
NATIONAL WEATHER SERVICE MISSOULA MT
1213 PM MDT TUE SEP 16 2014

Montana AWOS Reports

SCOBEY      |K9S2 161755Z AUTO 18004KT 40SM 21/03 A2997 RMK AO1 T02060028






000
SXUS55 KMSO 161803
OSOMSO
MONTANA AWOS SUMMARY
NATIONAL WEATHER SERVICE MISSOULA MT
1203 PM MDT TUE SEP 16 2014

Montana AWOS Reports

LAUREL      |K6S8 161755Z AUTO 21012G16KT 40SM 24/04 A3000 RMK AO1 T02440044
ROUNDUP     |KRPX 161755Z AUTO 00000KT 40SM 21/07 A2992 RMK AO1 T02060072






000
SXUS55 KMSO 161753
OSOMSO
MONTANA AWOS SUMMARY
NATIONAL WEATHER SERVICE MISSOULA MT
1153 AM MDT TUE SEP 16 2014

Montana AWOS Reports

MALTA       |KM75 161555Z AUTO 00000KT 40SM 13/07 A2995 RMK AO1 T01330067






000
SXUS55 KMSO 161743
OSOMSO
MONTANA AWOS SUMMARY
NATIONAL WEATHER SERVICE MISSOULA MT
1143 AM MDT TUE SEP 16 2014

Montana AWOS Reports

LAUREL      |K6S8 161735Z AUTO 21011KT 40SM 23/05 A3001 RMK AO1 T02330050






000
SXUS55 KMSO 161723
OSOMSO
MONTANA AWOS SUMMARY
NATIONAL WEATHER SERVICE MISSOULA MT
1123 AM MDT TUE SEP 16 2014

Montana AWOS Reports

LAUREL      |K6S8 161715Z AUTO 20011G15KT 40SM 22/06 A3001 RMK AO1 T02220056
ROUNDUP     |KRPX 161715Z AUTO 19007KT 40SM 19/05 A2993 RMK AO1 T01890050






000
SXUS55 KMSO 161713
OSOMSO
MONTANA AWOS SUMMARY
NATIONAL WEATHER SERVICE MISSOULA MT
1112 AM MDT TUE SEP 16 2014

Montana AWOS Reports

SCOBEY      |K9S2 161655Z AUTO 16004KT 40SM 18/02 A2998 RMK AO1 T01830017






000
SXUS55 KMSO 161703
OSOMSO
MONTANA AWOS SUMMARY
NATIONAL WEATHER SERVICE MISSOULA MT
1103 AM MDT TUE SEP 16 2014

Montana AWOS Reports

LAUREL      |K6S8 161655Z AUTO 20009G13KT 40SM 21/06 A3002 RMK AO1 T02110061
ROUNDUP     |KRPX 161655Z AUTO 20005KT 40SM 18/06 A2993 RMK AO1 T01830056






000
SXUS55 KMSO 161653
OSOMSO
MONTANA AWOS SUMMARY
NATIONAL WEATHER SERVICE MISSOULA MT
1052 AM MDT TUE SEP 16 2014

Montana AWOS Reports

PLAINS      |KS34 161555Z AUTO 00000KT 25SM 12/03 A3001 RMK AO1 T01170028






000
SXUS55 KMSO 161643
OSOMSO
MONTANA AWOS SUMMARY
NATIONAL WEATHER SERVICE MISSOULA MT
1043 AM MDT TUE SEP 16 2014

Montana AWOS Reports

LAUREL      |K6S8 161635Z AUTO 20009G13KT 40SM 20/06 A3002 RMK AO1 T02000061
ROUNDUP     |KRPX 161635Z AUTO 21008KT 40SM 17/04 A2993 RMK AO1 T01720044






000
SXUS55 KMSO 161623
OSOMSO
MONTANA AWOS SUMMARY
NATIONAL WEATHER SERVICE MISSOULA MT
1023 AM MDT TUE SEP 16 2014

Montana AWOS Reports

LAUREL      |K6S8 161615Z AUTO 21010G15KT 40SM 18/06 A3002 RMK AO1 T01830056
ROUNDUP     |KRPX 161615Z AUTO 20008KT 40SM 16/06 A2993 RMK AO1 T01610056






000
SXUS55 KMSO 161604
OSOMSO
MONTANA AWOS SUMMARY
NATIONAL WEATHER SERVICE MISSOULA MT
1003 AM MDT TUE SEP 16 2014

Montana AWOS Reports

LAUREL      |K6S8 161555Z AUTO 20009G13KT 40SM 16/06 A3002 RMK AO1 T01610056
ROUNDUP     |KRPX 161555Z AUTO 21006KT 40SM 14/06 A2993 RMK AO1 T01440056






000
SXUS55 KMSO 161553
OSOMSO
MONTANA AWOS SUMMARY
NATIONAL WEATHER SERVICE MISSOULA MT
953 AM MDT TUE SEP 16 2014

Montana AWOS Reports

ROUNDUP     |KRPX 161535Z AUTO 22005KT 40SM 14/06 A2994 RMK AO1 T01440056






000
SXUS55 KMSO 161544
OSOMSO
MONTANA AWOS SUMMARY
NATIONAL WEATHER SERVICE MISSOULA MT
943 AM MDT TUE SEP 16 2014

Montana AWOS Reports

LAUREL      |K6S8 161535Z AUTO 19010KT 40SM 14/06 A3003 RMK AO1 T01390056






000
SXUS55 KMSO 161533
OSOMSO
MONTANA AWOS SUMMARY
NATIONAL WEATHER SERVICE MISSOULA MT
933 AM MDT TUE SEP 16 2014

Montana AWOS Reports

SCOBEY      |K9S2 161455Z AUTO 00000KT 40SM 08/03 A3000 RMK AO1 T00780028






000
SXUS55 KMSO 161523
OSOMSO
MONTANA AWOS SUMMARY
NATIONAL WEATHER SERVICE MISSOULA MT
923 AM MDT TUE SEP 16 2014

Montana AWOS Reports

LAUREL      |K6S8 161515Z AUTO 19008KT 40SM 13/06 A3003 RMK AO1 T01330056
ROUNDUP     |KRPX 161515Z AUTO 22005KT 40SM 12/06 A2994 RMK AO1 T01220056






000
SXUS55 KMSO 161513
OSOMSO
MONTANA AWOS SUMMARY
NATIONAL WEATHER SERVICE MISSOULA MT
913 AM MDT TUE SEP 16 2014

Montana AWOS Reports

PLAINS      |KS34 161455Z AUTO 00000KT 25SM 07/02 A3001 RMK AO1 T00720022






000
SXUS55 KMSO 161503
OSOMSO
MONTANA AWOS SUMMARY
NATIONAL WEATHER SERVICE MISSOULA MT
903 AM MDT TUE SEP 16 2014

Montana AWOS Reports

LAUREL      |K6S8 161455Z AUTO 20008KT 40SM 12/05 A3003 RMK AO1 T01170050
ROUNDUP     |KRPX 161455Z AUTO 00000KT 40SM 11/04 A2994 RMK AO1 T01060044






000
SXUS55 KMSO 161443
OSOMSO
MONTANA AWOS SUMMARY
NATIONAL WEATHER SERVICE MISSOULA MT
842 AM MDT TUE SEP 16 2014

Montana AWOS Reports

LAUREL      |K6S8 161435Z AUTO 19007KT 40SM 11/05 A3003 RMK AO1 T01110050
ROUNDUP     |KRPX 161435Z AUTO 00000KT 40SM 11/04 A2994 RMK AO1 T01060044






000
SXUS55 KMSO 161423
OSOMSO
MONTANA AWOS SUMMARY
NATIONAL WEATHER SERVICE MISSOULA MT
822 AM MDT TUE SEP 16 2014

Montana AWOS Reports

LAUREL      |K6S8 161415Z AUTO 21007KT 40SM 09/04 A3003 RMK AO1 T00940044
ROUNDUP     |KRPX 161415Z AUTO 00000KT 40SM 09/04 A2994 RMK AO1 T00940039
MALTA       |KM75 161415Z AUTO 00000KT 40SM 08/04 A2996 RMK AO1 T00780044






000
SXUS55 KMSO 161413
OSOMSO
MONTANA AWOS SUMMARY
NATIONAL WEATHER SERVICE MISSOULA MT
813 AM MDT TUE SEP 16 2014

Montana AWOS Reports

SCOBEY      |K9S2 161355Z AUTO 00000KT 40SM 03/00 A3000 RMK AO1 T00280000






000
SXUS55 KMSO 161403
OSOMSO
MONTANA AWOS SUMMARY
NATIONAL WEATHER SERVICE MISSOULA MT
803 AM MDT TUE SEP 16 2014

Montana AWOS Reports

LAUREL      |K6S8 161355Z AUTO 20007KT 40SM 09/04 A3003 RMK AO1 T00890044
ROUNDUP     |KRPX 161355Z AUTO 22005KT 40SM 08/03 A2994 RMK AO1 T00830033
MALTA       |KM75 161355Z AUTO 00000KT 40SM 07/04 A2996 RMK AO1 T00670039
PLAINS      |KS34 161355Z AUTO 00000KT 25SM 03/M02 A3002 RMK AO1 T00281021






000
SXUS55 KMSO 161343
OSOMSO
MONTANA AWOS SUMMARY
NATIONAL WEATHER SERVICE MISSOULA MT
743 AM MDT TUE SEP 16 2014

Montana AWOS Reports

LAUREL      |K6S8 161335Z AUTO 20007KT 40SM 08/04 A3002 RMK AO1 T00830039
ROUNDUP     |KRPX 161335Z AUTO 00000KT 40SM 08/03 A2994 RMK AO1 T00780033
MALTA       |KM75 161335Z AUTO 00000KT 40SM 06/04 A2996 RMK AO1 T00610039






000
SXUS55 KMSO 161324
OSOMSO
MONTANA AWOS SUMMARY
NATIONAL WEATHER SERVICE MISSOULA MT
723 AM MDT TUE SEP 16 2014

Montana AWOS Reports

LAUREL      |K6S8 161315Z AUTO 21007KT 40SM 08/04 A3003 RMK AO1 T00830039
ROUNDUP     |KRPX 161315Z AUTO 21004KT 40SM 08/03 A2994 RMK AO1 T00780033
MALTA       |KM75 161315Z AUTO 00000KT 40SM 05/02 A2996 RMK AO1 T00500022






000
SXUS55 KMSO 161303
OSOMSO
MONTANA AWOS SUMMARY
NATIONAL WEATHER SERVICE MISSOULA MT
703 AM MDT TUE SEP 16 2014

Montana AWOS Reports

LAUREL      |K6S8 161255Z AUTO 20007KT 40SM 08/04 A3003 RMK AO1 T00780039
ROUNDUP     |KRPX 161255Z AUTO 21010KT 40SM 07/03 A2994 RMK AO1 T00720028
SCOBEY      |K9S2 161255Z AUTO 00000KT 40SM 00/M03 A3000 RMK AO1 T00001032
PLAINS      |KS34 161255Z AUTO 00000KT 25SM 03/M01 A3001 RMK AO1 T00331010






000
SXUS55 KMSO 161253
OSOMSO
MONTANA AWOS SUMMARY
NATIONAL WEATHER SERVICE MISSOULA MT
652 AM MDT TUE SEP 16 2014

Montana AWOS Reports

ROUNDUP     |KRPX 161235Z AUTO 20010G15KT 40SM 08/03 A2994 RMK AO1 T00780033






000
SXUS55 KMSO 161243
OSOMSO
MONTANA AWOS SUMMARY
NATIONAL WEATHER SERVICE MISSOULA MT
643 AM MDT TUE SEP 16 2014

Montana AWOS Reports

LAUREL      |K6S8 161235Z AUTO 21006KT 40SM 08/04 A3003 RMK AO1 T00780044
MALTA       |KM75 161235Z AUTO 00000KT 40SM 05/02 A2996 RMK AO1 T00500022






000
SXUS55 KMSO 161223
OSOMSO
MONTANA AWOS SUMMARY
NATIONAL WEATHER SERVICE MISSOULA MT
623 AM MDT TUE SEP 16 2014

Montana AWOS Reports

LAUREL      |K6S8 161215Z AUTO 20006KT 40SM 08/04 A3003 RMK AO1 T00780044
ROUNDUP     |KRPX 161215Z AUTO 20005KT 40SM 08/04 A2993 RMK AO1 T00830039
MALTA       |KM75 161215Z AUTO 00000KT 40SM 06/03 A2995 RMK AO1 T00560028






000
SXUS55 KMSO 161203
OSOMSO
MONTANA AWOS SUMMARY
NATIONAL WEATHER SERVICE MISSOULA MT
603 AM MDT TUE SEP 16 2014

Montana AWOS Reports

LAUREL      |K6S8 161155Z AUTO 20006KT 25SM 07/04 A3002 RMK AO1 T00720044
ROUNDUP     |KRPX 161155Z AUTO 20005KT 40SM 08/04 A2994 RMK AO1 T00830039
MALTA       |KM75 161155Z AUTO 00000KT 40SM 06/03 A2995 RMK AO1 T00560028
SCOBEY      |K9S2 161155Z AUTO 00000KT 40SM 01/M02 A3000 RMK AO1 T00111021
PLAINS      |KS34 161155Z AUTO 00000KT 25SM 04/M01 A3001 RMK AO1 T00391005






000
SXUS55 KMSO 161143
OSOMSO
MONTANA AWOS SUMMARY
NATIONAL WEATHER SERVICE MISSOULA MT
543 AM MDT TUE SEP 16 2014

Montana AWOS Reports

LAUREL      |K6S8 161135Z AUTO 23005KT 40SM 08/05 A3003 RMK AO1 T00830050
ROUNDUP     |KRPX 161135Z AUTO 00000KT 40SM 08/04 A2994 RMK AO1 T00830039
MALTA       |KM75 161135Z AUTO 00000KT 40SM 06/03 A2995 RMK AO1 T00610033






000
SXUS55 KMSO 161123
OSOMSO
MONTANA AWOS SUMMARY
NATIONAL WEATHER SERVICE MISSOULA MT
523 AM MDT TUE SEP 16 2014

Montana AWOS Reports

LAUREL      |K6S8 161115Z AUTO 25004KT 40SM 08/04 A3002 RMK AO1 T00780044
ROUNDUP     |KRPX 161115Z AUTO 21009G16KT 40SM 08/04 A2994 RMK AO1 T00830039






000
SXUS55 KMSO 161113
OSOMSO
MONTANA AWOS SUMMARY
NATIONAL WEATHER SERVICE MISSOULA MT
513 AM MDT TUE SEP 16 2014

Montana AWOS Reports

ROUNDUP     |KRPX 161055Z AUTO 21013KT 40SM 08/04 A2994 RMK AO1 T00780039
SCOBEY      |K9S2 161055Z AUTO 00000KT 40SM 00/M04 A3000 RMK AO1 T00001038






000
SXUS55 KMSO 161103
OSOMSO
MONTANA AWOS SUMMARY
NATIONAL WEATHER SERVICE MISSOULA MT
503 AM MDT TUE SEP 16 2014

Montana AWOS Reports

LAUREL      |K6S8 161055Z AUTO 25005KT 40SM 07/04 A3002 RMK AO1 T00720044
MALTA       |KM75 161055Z AUTO 00000KT 40SM 06/03 A2996 RMK AO1 T00610033
PLAINS      |KS34 161055Z AUTO 00000KT 25SM 04/M01 A3001 RMK AO1 T00441010






000
SXUS55 KMSO 161044
OSOMSO
MONTANA AWOS SUMMARY
NATIONAL WEATHER SERVICE MISSOULA MT
443 AM MDT TUE SEP 16 2014

Montana AWOS Reports

LAUREL      |K6S8 161035Z AUTO 00000KT 25SM 07/04 A3003 RMK AO1 T00670039
ROUNDUP     |KRPX 161035Z AUTO 19010G16KT 40SM 08/04 A2994 RMK AO1 T00780044
MALTA       |KM75 161035Z AUTO 00000KT 40SM 06/03 A2996 RMK AO1 T00610033






000
SXUS55 KMSO 161033
OSOMSO
MONTANA AWOS SUMMARY
NATIONAL WEATHER SERVICE MISSOULA MT
432 AM MDT TUE SEP 16 2014

Montana AWOS Reports

ROUNDUP     |KRPX 161015Z AUTO 20014G18KT 40SM 08/04 A2994 RMK AO1 T00830044






000
SXUS55 KMSO 161023
OSOMSO
MONTANA AWOS SUMMARY
NATIONAL WEATHER SERVICE MISSOULA MT
422 AM MDT TUE SEP 16 2014

Montana AWOS Reports

LAUREL      |K6S8 161015Z AUTO 00000KT 25SM 07/04 A3003 RMK AO1 T00720044
MALTA       |KM75 161015Z AUTO 00000KT 40SM 07/03 A2996 RMK AO1 T00670033






000
SXUS55 KMSO 161004
OSOMSO
MONTANA AWOS SUMMARY
NATIONAL WEATHER SERVICE MISSOULA MT
403 AM MDT TUE SEP 16 2014

Montana AWOS Reports

LAUREL      |K6S8 160955Z AUTO 00000KT 25SM 07/04 A3003 RMK AO1 T00720044
ROUNDUP     |KRPX 160955Z AUTO 20011G15KT 40SM 08/05 A2994 RMK AO1 T00830050
MALTA       |KM75 160955Z AUTO 00000KT 40SM 07/03 A2996 RMK AO1 T00720033
SCOBEY      |K9S2 160955Z AUTO 00000KT 40SM 02/M03 A3001 RMK AO1 T00171027
PLAINS      |KS34 160955Z AUTO 00000KT 25SM 06/00 A3001 RMK AO1 T00560000






000
SXUS55 KMSO 160943
OSOMSO
MONTANA AWOS SUMMARY
NATIONAL WEATHER SERVICE MISSOULA MT
343 AM MDT TUE SEP 16 2014

Montana AWOS Reports

LAUREL      |K6S8 160935Z AUTO 00000KT 40SM 07/04 A3003 RMK AO1 T00720044
ROUNDUP     |KRPX 160935Z AUTO 20009KT 40SM 08/04 A2994 RMK AO1 T00780044
MALTA       |KM75 160935Z AUTO 00000KT 40SM 07/03 A2996 RMK AO1 T00720033






000
SXUS55 KMSO 160923
OSOMSO
MONTANA AWOS SUMMARY
NATIONAL WEATHER SERVICE MISSOULA MT
323 AM MDT TUE SEP 16 2014

Montana AWOS Reports

LAUREL      |K6S8 160915Z AUTO 00000KT 25SM 07/04 A3003 RMK AO1 T00720044
ROUNDUP     |KRPX 160915Z AUTO 20010KT 40SM 08/05 A2995 RMK AO1 T00780050
MALTA       |KM75 160915Z AUTO 00000KT 40SM 08/04 A2996 RMK AO1 T00780039






000
SXUS55 KMSO 160913
OSOMSO
MONTANA AWOS SUMMARY
NATIONAL WEATHER SERVICE MISSOULA MT
313 AM MDT TUE SEP 16 2014

Montana AWOS Reports

ROUNDUP     |KRPX 160855Z AUTO 21006KT 40SM 08/04 A2995 RMK AO1 T00780044
SCOBEY      |K9S2 160855Z AUTO 00000KT 40SM 02/M03 A3001 RMK AO1 T00171027
MALTA       |KM75 160855Z AUTO 00000KT 40SM 08/03 A2997 RMK AO1 T00780033






000
SXUS55 KMSO 160903
OSOMSO
MONTANA AWOS SUMMARY
NATIONAL WEATHER SERVICE MISSOULA MT
303 AM MDT TUE SEP 16 2014

Montana AWOS Reports

LAUREL      |K6S8 160855Z AUTO 00000KT 25SM 08/04 A3003 RMK AO1 T00780039
PLAINS      |KS34 160855Z AUTO 00000KT 25SM 07/00 A3001 RMK AO1 T00670000






000
SXUS55 KMSO 160853
OSOMSO
MONTANA AWOS SUMMARY
NATIONAL WEATHER SERVICE MISSOULA MT
253 AM MDT TUE SEP 16 2014

Montana AWOS Reports

ROUNDUP     |KRPX 160835Z AUTO 00000KT 40SM 08/04 A2996 RMK AO1 T00830044






000
SXUS55 KMSO 160843
OSOMSO
MONTANA AWOS SUMMARY
NATIONAL WEATHER SERVICE MISSOULA MT
243 AM MDT TUE SEP 16 2014

Montana AWOS Reports

LAUREL      |K6S8 160835Z AUTO 25004KT 40SM 08/03 A3004 RMK AO1 T00780033
MALTA       |KM75 160835Z AUTO 00000KT 40SM 08/03 A2997 RMK AO1 T00780033






000
SXUS55 KMSO 160823
OSOMSO
MONTANA AWOS SUMMARY
NATIONAL WEATHER SERVICE MISSOULA MT
223 AM MDT TUE SEP 16 2014

Montana AWOS Reports

LAUREL      |K6S8 160815Z AUTO 00000KT 40SM 09/04 A3004 RMK AO1 T00890044
ROUNDUP     |KRPX 160815Z AUTO 22004KT 40SM 09/06 A2996 RMK AO1 T00940056
MALTA       |KM75 160815Z AUTO 00000KT 40SM 08/04 A2997 RMK AO1 T00830039






000
SXUS55 KMSO 160814
OSOMSO
MONTANA AWOS SUMMARY
NATIONAL WEATHER SERVICE MISSOULA MT
213 AM MDT TUE SEP 16 2014

Montana AWOS Reports

PLAINS      |KS34 160755Z AUTO 00000KT 25SM 07/01 A3001 RMK AO1 T00720006






000
SXUS55 KMSO 160804
OSOMSO
MONTANA AWOS SUMMARY
NATIONAL WEATHER SERVICE MISSOULA MT
203 AM MDT TUE SEP 16 2014

Montana AWOS Reports

LAUREL      |K6S8 160755Z AUTO 00000KT 40SM 08/04 A3004 RMK AO1 T00830039
ROUNDUP     |KRPX 160755Z AUTO 00000KT 40SM 10/06 A2996 RMK AO1 T01000056
MALTA       |KM75 160755Z AUTO 00000KT 40SM 08/04 A2997 RMK AO1 T00830039






000
SXUS55 KMSO 160753
OSOMSO
MONTANA AWOS SUMMARY
NATIONAL WEATHER SERVICE MISSOULA MT
153 AM MDT TUE SEP 16 2014

Montana AWOS Reports

LAUREL      |K6S8 160735Z AUTO 00000KT 40SM 09/04 A3005 RMK AO1 T00940044
ROUNDUP     |KRPX 160735Z AUTO 23005KT 40SM 09/06 A2996 RMK AO1 T00940056






000
SXUS55 KMSO 160743
OSOMSO
MONTANA AWOS SUMMARY
NATIONAL WEATHER SERVICE MISSOULA MT
143 AM MDT TUE SEP 16 2014

Montana AWOS Reports

MALTA       |KM75 160735Z AUTO 00000KT 40SM 08/04 A2997 RMK AO1 T00780039






000
SXUS55 KMSO 160733
OSOMSO
MONTANA AWOS SUMMARY
NATIONAL WEATHER SERVICE MISSOULA MT
133 AM MDT TUE SEP 16 2014

Montana AWOS Reports

MALTA       |KM75 160655Z AUTO 00000KT 40SM 09/04 A2998 RMK AO1 T00890044






000
SXUS55 KMSO 160723
OSOMSO
MONTANA AWOS SUMMARY
NATIONAL WEATHER SERVICE MISSOULA MT
123 AM MDT TUE SEP 16 2014

Montana AWOS Reports

LAUREL      |K6S8 160715Z AUTO 00000KT 40SM 09/04 A3005 RMK AO1 T00890044
MALTA       |KM75 160715Z AUTO 00000KT 40SM 08/04 A2998 RMK AO1 T00780039
ROUNDUP     |KRPX 160715Z AUTO 00000KT 40SM 09/06 A2996 RMK AO1 T00940056






000
SXUS55 KMSO 160713
OSOMSO
MONTANA AWOS SUMMARY
NATIONAL WEATHER SERVICE MISSOULA MT
113 AM MDT TUE SEP 16 2014

Montana AWOS Reports

LAUREL      |K6S8 160655Z AUTO 00000KT 40SM 10/04 A3005 RMK AO1 T01000044
SCOBEY      |K9S2 160655Z AUTO 00000KT 40SM 04/M02 A3003 RMK AO1 T00391021






000
SXUS55 KMSO 160703
OSOMSO
MONTANA AWOS SUMMARY
NATIONAL WEATHER SERVICE MISSOULA MT
103 AM MDT TUE SEP 16 2014

Montana AWOS Reports

ROUNDUP     |KRPX 160655Z AUTO 00000KT 40SM 09/05 A2997 RMK AO1 T00940050
PLAINS      |KS34 160655Z AUTO 00000KT 25SM 08/01 A3000 RMK AO1 T00830006






000
SXUS55 KMSO 160643
OSOMSO
MONTANA AWOS SUMMARY
NATIONAL WEATHER SERVICE MISSOULA MT
1242 AM MDT TUE SEP 16 2014

Montana AWOS Reports

ROUNDUP     |KRPX 160635Z AUTO 00000KT 40SM 10/06 A2997 RMK AO1 T01000056
MALTA       |KM75 160635Z AUTO 00000KT 40SM 11/05 A2999 RMK AO1 T01060050
LAUREL      |K6S8 160635Z AUTO 00000KT 40SM 11/05 A3004 RMK AO1 T01060050






000
SXUS55 KMSO 160623
OSOMSO
MONTANA AWOS SUMMARY
NATIONAL WEATHER SERVICE MISSOULA MT
1223 AM MDT TUE SEP 16 2014

Montana AWOS Reports

LAUREL      |K6S8 160615Z AUTO 00000KT 40SM 10/05 A3005 RMK AO1 T01000050
ROUNDUP     |KRPX 160615Z AUTO 40SM 09/05 A2997 RMK AO1 T00940050
MALTA       |KM75 160615Z AUTO 00000KT 40SM 11/05 A2999 RMK AO1 T01060050






000
SXUS55 KMSO 160603
OSOMSO
MONTANA AWOS SUMMARY
NATIONAL WEATHER SERVICE MISSOULA MT
1203 AM MDT TUE SEP 16 2014

Montana AWOS Reports

ROUNDUP     |KRPX 160555Z AUTO 00000KT 40SM 11/06 A2997 RMK AO1 T01060056
MALTA       |KM75 160555Z AUTO 00000KT 40SM 10/05 A2999 RMK AO1 T01000050
PLAINS      |KS34 160555Z AUTO 00000KT 25SM 10/01 A3000 RMK AO1 T01000011
SCOBEY      |K9S2 160555Z AUTO 00000KT 40SM 06/M01 A3003 RMK AO1 T00561010






000
SXUS55 KMSO 160553
OSOMSO
MONTANA AWOS SUMMARY
NATIONAL WEATHER SERVICE MISSOULA MT
1152 PM MDT MON SEP 15 2014

Montana AWOS Reports

ROUNDUP     |KRPX 160535Z AUTO 00000KT 40SM 11/05 A2997 RMK AO1 T01060050
MALTA       |KM75 160535Z AUTO 00000KT 40SM 09/06 A2999 RMK AO1 T00940056






000
SXUS55 KMSO 160543
OSOMSO
MONTANA AWOS SUMMARY
NATIONAL WEATHER SERVICE MISSOULA MT
1143 PM MDT MON SEP 15 2014

Montana AWOS Reports

LAUREL      |K6S8 160535Z AUTO 00000KT 40SM 11/04 A3005 RMK AO1 T01060044






000
SXUS55 KMSO 160524
OSOMSO
MONTANA AWOS SUMMARY
NATIONAL WEATHER SERVICE MISSOULA MT
1123 PM MDT MON SEP 15 2014

Montana AWOS Reports

LAUREL      |K6S8 160515Z AUTO 00000KT 40SM 10/04 A3005 RMK AO1 T01000044
ROUNDUP     |KRPX 160515Z AUTO 00000KT 40SM 12/06 A2997 RMK AO1 T01220056






000
SXUS55 KMSO 160503
OSOMSO
MONTANA AWOS SUMMARY
NATIONAL WEATHER SERVICE MISSOULA MT
1103 PM MDT MON SEP 15 2014

Montana AWOS Reports

ROUNDUP     |KRPX 160455Z AUTO 00000KT 40SM 16/06 A2998 RMK AO1 T01560056
MALTA       |KM75 160455Z AUTO 00000KT 40SM 09/06 A2999 RMK AO1 T00940056
PLAINS      |KS34 160455Z AUTO 00000KT 25SM 12/02 A2999 RMK AO1 T01170017
SCOBEY      |K9S2 160455Z AUTO 00000KT 40SM 06/M02 A3004 RMK AO1 T00611016






000
SXUS55 KMSO 160444
OSOMSO
MONTANA AWOS SUMMARY
NATIONAL WEATHER SERVICE MISSOULA MT
1043 PM MDT MON SEP 15 2014

Montana AWOS Reports

ROUNDUP     |KRPX 160435Z AUTO 00000KT 40SM 14/06 A2997 RMK AO1 T01440056
MALTA       |KM75 160435Z AUTO 00000KT 40SM 10/06 A2999 RMK AO1 T01000056






000
SXUS55 KMSO 160423
OSOMSO
MONTANA AWOS SUMMARY
NATIONAL WEATHER SERVICE MISSOULA MT
1023 PM MDT MON SEP 15 2014

Montana AWOS Reports

ROUNDUP     |KRPX 160415Z AUTO 00000KT 40SM 16/06 A2997 RMK AO1 T01560056
MALTA       |KM75 160415Z AUTO 00000KT 40SM 11/06 A2999 RMK AO1 T01060061






000
SXUS55 KMSO 160403
OSOMSO
MONTANA AWOS SUMMARY
NATIONAL WEATHER SERVICE MISSOULA MT
1003 PM MDT MON SEP 15 2014

Montana AWOS Reports

LAUREL      |K6S8 160355Z AUTO 00000KT 40SM 12/06 A3005 RMK AO1 T01220056
ROUNDUP     |KRPX 160355Z AUTO 00000KT 40SM 14/05 A2998 RMK AO1 T01440050
MALTA       |KM75 160355Z AUTO 00000KT 40SM 11/07 A2999 RMK AO1 T01110067
SCOBEY      |K9S2 160355Z AUTO 00000KT 40SM 08/M02 A3004 RMK AO1 T00781016
PLAINS      |KS34 160355Z AUTO 00000KT 25SM 14/03 A2999 RMK AO1 T01390028






000
SXUS55 KMSO 160353
OSOMSO
MONTANA AWOS SUMMARY
NATIONAL WEATHER SERVICE MISSOULA MT
952 PM MDT MON SEP 15 2014

Montana AWOS Reports

ROUNDUP     |KRPX 160335Z AUTO 00000KT 40SM 15/06 A2998 RMK AO1 T01500056
MALTA       |KM75 160335Z AUTO 00000KT 40SM 12/07 A2999 RMK AO1 T01170067






000
SXUS55 KMSO 160343
OSOMSO
MONTANA AWOS SUMMARY
NATIONAL WEATHER SERVICE MISSOULA MT
943 PM MDT MON SEP 15 2014

Montana AWOS Reports

LAUREL      |K6S8 160335Z AUTO 29004KT 40SM 13/06 A3005 RMK AO1 T01280056






000
SXUS55 KMSO 160323
OSOMSO
MONTANA AWOS SUMMARY
NATIONAL WEATHER SERVICE MISSOULA MT
923 PM MDT MON SEP 15 2014

Montana AWOS Reports

MALTA       |KM75 160255Z AUTO 00000KT 40SM 12/07 A3000 RMK AO1 T01220067
LAUREL      |K6S8 160315Z AUTO 00000KT 10SM 14/05 A3005 RMK AO1 T01440050
ROUNDUP     |KRPX 160315Z AUTO 00000KT 40SM 17/05 A2998 RMK AO1 T01720050
MALTA       |KM75 160315Z AUTO 00000KT 40SM 12/07 A3000 RMK AO1 T01220067






000
SXUS55 KMSO 160314
OSOMSO
MONTANA AWOS SUMMARY
NATIONAL WEATHER SERVICE MISSOULA MT
913 PM MDT MON SEP 15 2014

Montana AWOS Reports

PLAINS      |KS34 160255Z AUTO 00000KT 15SM 16/02 A2998 RMK AO1 T01610022
SCOBEY      |K9S2 160255Z AUTO 00000KT 25SM 09/M02 A3004 RMK AO1 T00941016






000
SXUS55 KMSO 160303
OSOMSO
MONTANA AWOS SUMMARY
NATIONAL WEATHER SERVICE MISSOULA MT
903 PM MDT MON SEP 15 2014

Montana AWOS Reports

ROUNDUP     |KRPX 160255Z AUTO 00000KT 40SM 17/06 A2997 RMK AO1 T01670056






000
SXUS55 KMSO 160243
OSOMSO
MONTANA AWOS SUMMARY
NATIONAL WEATHER SERVICE MISSOULA MT
843 PM MDT MON SEP 15 2014

Montana AWOS Reports

ROUNDUP     |KRPX 160235Z AUTO 00000KT 40SM 17/06 A2997 RMK AO1 T01720056
MALTA       |KM75 160235Z AUTO 00000KT 40SM 13/07 A2999 RMK AO1 T01330072






000
SXUS55 KMSO 160223
OSOMSO
MONTANA AWOS SUMMARY
NATIONAL WEATHER SERVICE MISSOULA MT
823 PM MDT MON SEP 15 2014

Montana AWOS Reports

LAUREL      |K6S8 160215Z AUTO 00000KT 40SM 17/06 A3005 RMK AO1 T01670061
ROUNDUP     |KRPX 160215Z AUTO 00000KT 40SM 18/05 A2997 RMK AO1 T01780050






000
SXUS55 KMSO 160213
OSOMSO
MONTANA AWOS SUMMARY
NATIONAL WEATHER SERVICE MISSOULA MT
812 PM MDT MON SEP 15 2014

Montana AWOS Reports

SCOBEY      |K9S2 160155Z AUTO 00000KT 40SM 13/M01 A3005 RMK AO1 T01281010
MALTA       |KM75 160155Z AUTO 00000KT 40SM 16/08 A2999 RMK AO1 T01560083






000
SXUS55 KMSO 160204
OSOMSO
MONTANA AWOS SUMMARY
NATIONAL WEATHER SERVICE MISSOULA MT
803 PM MDT MON SEP 15 2014

Montana AWOS Reports

ROUNDUP     |KRPX 160155Z AUTO 00000KT 40SM 19/05 A2997 RMK AO1 T01890050
PLAINS      |KS34 160155Z AUTO 00000KT 40SM 23/03 A2997 RMK AO1 T02280028






000
SXUS55 KMSO 160153
OSOMSO
MONTANA AWOS SUMMARY
NATIONAL WEATHER SERVICE MISSOULA MT
753 PM MDT MON SEP 15 2014

Montana AWOS Reports

ROUNDUP     |KRPX 160135Z AUTO 00000KT 40SM 19/05 A2997 RMK AO1 T01890050






000
SXUS55 KMSO 160143
OSOMSO
MONTANA AWOS SUMMARY
NATIONAL WEATHER SERVICE MISSOULA MT
743 PM MDT MON SEP 15 2014

Montana AWOS Reports

LAUREL      |K6S8 160135Z AUTO 00000KT 40SM 18/06 A3004 RMK AO1 T01830061
MALTA       |KM75 160135Z AUTO 00000KT 40SM 17/09 A2999 RMK AO1 T01720089






000
SXUS55 KMSO 160123
OSOMSO
MONTANA AWOS SUMMARY
NATIONAL WEATHER SERVICE MISSOULA MT
723 PM MDT MON SEP 15 2014

Montana AWOS Reports

LAUREL      |K6S8 160115Z AUTO 00000KT 40SM 19/06 A3004 RMK AO1 T01940061
ROUNDUP     |KRPX 160115Z AUTO 00000KT 40SM 19/06 A2997 RMK AO1 T01940056






000
SXUS55 KMSO 160114
OSOMSO
MONTANA AWOS SUMMARY
NATIONAL WEATHER SERVICE MISSOULA MT
713 PM MDT MON SEP 15 2014

Montana AWOS Reports

SCOBEY      |K9S2 160055Z AUTO 00000KT 40SM 17/M01 A3005 RMK AO1 T01721005
MALTA       |KM75 160055Z AUTO 00000KT 40SM 21/09 A2999 RMK AO1 T02110089
PLAINS      |KS34 160055Z AUTO 00000KT 40SM 27/02 A2996 RMK AO1 T02720017






000
SXUS55 KMSO 160103
OSOMSO
MONTANA AWOS SUMMARY
NATIONAL WEATHER SERVICE MISSOULA MT
702 PM MDT MON SEP 15 2014

Montana AWOS Reports

LAUREL      |K6S8 160055Z AUTO 00000KT 40SM 21/07 A3004 RMK AO1 T02110067
ROUNDUP     |KRPX 160055Z AUTO 00000KT 40SM 20/05 A2997 RMK AO1 T02000050






000
SXUS55 KMSO 160043
OSOMSO
MONTANA AWOS SUMMARY
NATIONAL WEATHER SERVICE MISSOULA MT
643 PM MDT MON SEP 15 2014

Montana AWOS Reports

ROUNDUP     |KRPX 160035Z AUTO 00000KT 40SM 21/06 A2997 RMK AO1 T02110056
MALTA       |KM75 160035Z AUTO 00000KT 40SM 22/07 A2999 RMK AO1 T02170072






000
SXUS55 KMSO 160023
OSOMSO
MONTANA AWOS SUMMARY
NATIONAL WEATHER SERVICE MISSOULA MT
623 PM MDT MON SEP 15 2014

Montana AWOS Reports

LAUREL      |K6S8 160015Z AUTO 03005KT 40SM 22/06 A3005 RMK AO1 T02220061
ROUNDUP     |KRPX 160015Z AUTO 00000KT 40SM 22/05 A2997 RMK AO1 T02170050






000
SXUS55 KMSO 160003
OSOMSO
MONTANA AWOS SUMMARY
NATIONAL WEATHER SERVICE MISSOULA MT
603 PM MDT MON SEP 15 2014

Montana AWOS Reports

ROUNDUP     |KRPX 152355Z AUTO 00000KT 40SM 22/04 A2997 RMK AO1 T02220044
MALTA       |KM75 152355Z AUTO 00000KT 40SM 22/04 A3000 RMK AO1 T02170044
PLAINS      |KS34 152355Z AUTO 00000KT 40SM 29/02 A2997 RMK AO1 T02890022
SCOBEY      |K9S2 152355Z AUTO 21004KT 40SM 20/M01 A3005 RMK AO1 T02001010






000
SXUS55 KMSO 152353
OSOMSO
MONTANA AWOS SUMMARY
NATIONAL WEATHER SERVICE MISSOULA MT
553 PM MDT MON SEP 15 2014

Montana AWOS Reports

ROUNDUP     |KRPX 152335Z AUTO 00000KT 40SM 23/04 A2997 RMK AO1 T02280044
MALTA       |KM75 152335Z AUTO 00000KT 40SM 22/05 A3000 RMK AO1 T02170050






000
SXUS55 KMSO 152343
OSOMSO
MONTANA AWOS SUMMARY
NATIONAL WEATHER SERVICE MISSOULA MT
543 PM MDT MON SEP 15 2014

Montana AWOS Reports

LAUREL      |K6S8 152335Z AUTO 00000KT 40SM 23/06 A3005 RMK AO1 T02280061






000
SXUS55 KMSO 152323
OSOMSO
MONTANA AWOS SUMMARY
NATIONAL WEATHER SERVICE MISSOULA MT
523 PM MDT MON SEP 15 2014

Montana AWOS Reports

LAUREL      |K6S8 152315Z AUTO 04004KT 40SM 23/06 A3005 RMK AO1 T02330061
ROUNDUP     |KRPX 152315Z AUTO 00000KT 40SM 23/04 A2997 RMK AO1 T02280044
MALTA       |KM75 152315Z AUTO 00000KT 40SM 22/04 A3000 RMK AO1 T02170044






000
SXUS55 KMSO 152313
OSOMSO
MONTANA AWOS SUMMARY
NATIONAL WEATHER SERVICE MISSOULA MT
513 PM MDT MON SEP 15 2014

Montana AWOS Reports

SCOBEY      |K9S2 152255Z AUTO 21011G15KT 40SM 20/M01 A3006 RMK AO1 T02001010






000
SXUS55 KMSO 152303
OSOMSO
MONTANA AWOS SUMMARY
NATIONAL WEATHER SERVICE MISSOULA MT
502 PM MDT MON SEP 15 2014

Montana AWOS Reports

LAUREL      |K6S8 152255Z AUTO 00000KT 40SM 23/06 A3005 RMK AO1 T02330061
ROUNDUP     |KRPX 152255Z AUTO 00000KT 40SM 23/04 A2998 RMK AO1 T02280044
MALTA       |KM75 152255Z AUTO 00000KT 40SM 22/04 A3000 RMK AO1 T02220044






000
SXUS55 KMSO 152243
OSOMSO
MONTANA AWOS SUMMARY
NATIONAL WEATHER SERVICE MISSOULA MT
443 PM MDT MON SEP 15 2014

Montana AWOS Reports

LAUREL      |K6S8 152235Z AUTO 06005KT 40SM 23/06 A3005 RMK AO1 T02280061
ROUNDUP     |KRPX 152235Z AUTO 00000KT 40SM 23/05 A2998 RMK AO1 T02280050






000
SXUS55 KMSO 152223
OSOMSO
MONTANA AWOS SUMMARY
NATIONAL WEATHER SERVICE MISSOULA MT
423 PM MDT MON SEP 15 2014

Montana AWOS Reports

LAUREL      |K6S8 152215Z AUTO VRB04KT 40SM 23/07 A3006 RMK AO1 T02280067
ROUNDUP     |KRPX 152215Z AUTO 17004KT 40SM 23/06 A2998 RMK AO1 T02280056
MALTA       |KM75 152215Z AUTO 12004KT 40SM 22/04 A3000 RMK AO1 T02170044






000
SXUS55 KMSO 152203
OSOMSO
MONTANA AWOS SUMMARY
NATIONAL WEATHER SERVICE MISSOULA MT
403 PM MDT MON SEP 15 2014

Montana AWOS Reports

LAUREL      |K6S8 152155Z AUTO 00000KT 40SM 23/07 A3006 RMK AO1 T02280067
ROUNDUP     |KRPX 152155Z AUTO 00000KT 40SM 22/05 A2998 RMK AO1 T02220050
MALTA       |KM75 152155Z AUTO 00000KT 40SM 22/04 A3001 RMK AO1 T02170039
SCOBEY      |K9S2 152155Z AUTO 23008KT 40SM 20/M01 A3007 RMK AO1 T02001005
MALTA       |KM75 152155Z AUTO 00000KT 40SM 22/04 A3001 RMK AO1 T02170039
PLAINS      |KS34 152155Z AUTO 00000KT 15SM 29/02 A2999 RMK AO1 T02890022






000
SXUS55 KMSO 152143
OSOMSO
MONTANA AWOS SUMMARY
NATIONAL WEATHER SERVICE MISSOULA MT
343 PM MDT MON SEP 15 2014

Montana AWOS Reports

ROUNDUP     |KRPX 152135Z AUTO 16008KT 40SM 22/05 A2998 RMK AO1 T02220050






000
SXUS55 KMSO 152133
OSOMSO
MONTANA AWOS SUMMARY
NATIONAL WEATHER SERVICE MISSOULA MT
333 PM MDT MON SEP 15 2014

Montana AWOS Reports

SCOBEY      |K9S2 152055Z AUTO 21010G16KT 40SM 19/M01 A3008 RMK AO1 T01941005






000
SXUS55 KMSO 152123
OSOMSO
MONTANA AWOS SUMMARY
NATIONAL WEATHER SERVICE MISSOULA MT
323 PM MDT MON SEP 15 2014

Montana AWOS Reports

PLAINS      |KS34 152055Z AUTO 00000KT 15SM 27/02 A3002 RMK AO1 T02670022
LAUREL      |K6S8 152115Z AUTO 00000KT 40SM 22/06 A3007 RMK AO1 T02170061
ROUNDUP     |KRPX 152115Z AUTO 19009G13KT 40SM 22/04 A2999 RMK AO1 T02170044
MALTA       |KM75 152055Z AUTO 00000KT 40SM 21/04 A3002 RMK AO1 T02110039






000
SXUS55 KMSO 152113
OSOMSO
MONTANA AWOS SUMMARY
NATIONAL WEATHER SERVICE MISSOULA MT
313 PM MDT MON SEP 15 2014

Montana AWOS Reports

ROUNDUP     |KRPX 152055Z AUTO 15005KT 40SM 21/05 A2999 RMK AO1 T02110050






000
SXUS55 KMSO 152104
OSOMSO
MONTANA AWOS SUMMARY
NATIONAL WEATHER SERVICE MISSOULA MT
303 PM MDT MON SEP 15 2014

Montana AWOS Reports

LAUREL      |K6S8 152055Z AUTO 00000KT 40SM 21/06 A3008 RMK AO1 T02110056






000
SXUS55 KMSO 152043
OSOMSO
MONTANA AWOS SUMMARY
NATIONAL WEATHER SERVICE MISSOULA MT
243 PM MDT MON SEP 15 2014

Montana AWOS Reports

LAUREL      |K6S8 152035Z AUTO 07004KT 40SM 21/05 A3008 RMK AO1 T02060050
ROUNDUP     |KRPX 152035Z AUTO 16005KT 40SM 21/05 A3000 RMK AO1 T02110050






000
SXUS55 KMSO 152023
OSOMSO
MONTANA AWOS SUMMARY
NATIONAL WEATHER SERVICE MISSOULA MT
223 PM MDT MON SEP 15 2014

Montana AWOS Reports

LAUREL      |K6S8 152015Z AUTO 00000KT 40SM 20/05 A3009 RMK AO1 T02000050
ROUNDUP     |KRPX 152015Z AUTO 00000KT 40SM 20/04 A3001 RMK AO1 T02000044






000
SXUS55 KMSO 152003
OSOMSO
MONTANA AWOS SUMMARY
NATIONAL WEATHER SERVICE MISSOULA MT
203 PM MDT MON SEP 15 2014

Montana AWOS Reports

ROUNDUP     |KRPX 151955Z AUTO 16007KT 40SM 20/05 A3001 RMK AO1 T02000050
MALTA       |KM75 151955Z AUTO 14005KT 40SM 21/04 A3004 RMK AO1 T02060044
SCOBEY      |K9S2 151955Z AUTO 21010G15KT 40SM 19/M01 A3010 RMK AO1 T01941005
PLAINS      |KS34 151955Z AUTO 00000KT 40SM 24/02 A3005 RMK AO1 T02390022






000
SXUS55 KMSO 151944
OSOMSO
MONTANA AWOS SUMMARY
NATIONAL WEATHER SERVICE MISSOULA MT
143 PM MDT MON SEP 15 2014

Montana AWOS Reports

ROUNDUP     |KRPX 151935Z AUTO 16007KT 40SM 19/04 A3002 RMK AO1 T01940044
MALTA       |KM75 151935Z AUTO 00000KT 40SM 20/06 A3005 RMK AO1 T02000056






000
SXUS55 KMSO 151923
OSOMSO
MONTANA AWOS SUMMARY
NATIONAL WEATHER SERVICE MISSOULA MT
123 PM MDT MON SEP 15 2014

Montana AWOS Reports

ROUNDUP     |KRPX 151915Z AUTO 22014KT 40SM 19/04 A3003 RMK AO1 T01940044
MALTA       |KM75 151915Z AUTO 00000KT 40SM 19/05 A3006 RMK AO1 T01940050






000
SXUS55 KMSO 151914
OSOMSO
MONTANA AWOS SUMMARY
NATIONAL WEATHER SERVICE MISSOULA MT
113 PM MDT MON SEP 15 2014

Montana AWOS Reports

MALTA       |KM75 151855Z AUTO 00000KT 40SM 19/06 A3006 RMK AO1 T01940056
PLAINS      |KS34 151855Z AUTO 00000KT 40SM 22/02 A3007 RMK AO1 T02170017






000
SXUS55 KMSO 151903
OSOMSO
MONTANA AWOS SUMMARY
NATIONAL WEATHER SERVICE MISSOULA MT
103 PM MDT MON SEP 15 2014

Montana AWOS Reports

LAUREL      |K6S8 151855Z AUTO 00000KT 40SM 18/04 A3012 RMK AO1 T01780039
ROUNDUP     |KRPX 151855Z AUTO 20008KT 170V230 40SM 18/06 A3003 RMK AO1 T01830061
SCOBEY      |K9S2 151855Z AUTO 19012G19KT 40SM 18/M01 A3012 RMK AO1 T01831010






000
SXUS55 KMSO 151853
OSOMSO
MONTANA AWOS SUMMARY
NATIONAL WEATHER SERVICE MISSOULA MT
1253 PM MDT MON SEP 15 2014

Montana AWOS Reports

ROUNDUP     |KRPX 151835Z AUTO 20007KT 40SM 18/06 A3004 RMK AO1 T01780056






000
SXUS55 KMSO 151843
OSOMSO
MONTANA AWOS SUMMARY
NATIONAL WEATHER SERVICE MISSOULA MT
1242 PM MDT MON SEP 15 2014

Montana AWOS Reports

LAUREL      |K6S8 151835Z AUTO 07005KT 40SM 17/04 A3012 RMK AO1 T01670039






000
SXUS55 KMSO 151824
OSOMSO
MONTANA AWOS SUMMARY
NATIONAL WEATHER SERVICE MISSOULA MT
1223 PM MDT MON SEP 15 2014

Montana AWOS Reports

LAUREL      |K6S8 151815Z AUTO 05005KT 40SM 16/04 A3013 RMK AO1 T01610039
ROUNDUP     |KRPX 151815Z AUTO 18005KT 40SM 17/04 A3004 RMK AO1 T01720039






000
SXUS55 KMSO 151813
OSOMSO
MONTANA AWOS SUMMARY
NATIONAL WEATHER SERVICE MISSOULA MT
1213 PM MDT MON SEP 15 2014

Montana AWOS Reports

SCOBEY      |K9S2 151755Z AUTO 20013G18KT 40SM 17/M01 A3013 RMK AO1 T01721005
PLAINS      |KS34 151755Z AUTO 00000KT 40SM 18/02 A3009 RMK AO1 T01830017






000
SXUS55 KMSO 151803
OSOMSO
MONTANA AWOS SUMMARY
NATIONAL WEATHER SERVICE MISSOULA MT
1202 PM MDT MON SEP 15 2014

Montana AWOS Reports

LAUREL      |K6S8 151755Z AUTO 00000KT 40SM 16/04 A3013 RMK AO1 T01560044
MALTA       |KM75 151755Z AUTO 00000KT 40SM 18/07 A3008 RMK AO1 T01780067






000
SXUS55 KMSO 151753
OSOMSO
MONTANA AWOS SUMMARY
NATIONAL WEATHER SERVICE MISSOULA MT
1153 AM MDT MON SEP 15 2014

Montana AWOS Reports

ROUNDUP     |KRPX 151735Z AUTO 19006KT 40SM 16/04 A3006 RMK AO1 T01560044






000
SXUS55 KMSO 151743
OSOMSO
MONTANA AWOS SUMMARY
NATIONAL WEATHER SERVICE MISSOULA MT
1143 AM MDT MON SEP 15 2014

Montana AWOS Reports

LAUREL      |K6S8 151735Z AUTO 00000KT 40SM 15/04 A3014 RMK AO1 T01500039






000
SXUS55 KMSO 151723
OSOMSO
MONTANA AWOS SUMMARY
NATIONAL WEATHER SERVICE MISSOULA MT
1123 AM MDT MON SEP 15 2014

Montana AWOS Reports

LAUREL      |K6S8 151715Z AUTO 00000KT 40SM 14/03 A3014 RMK AO1 T01390028
SCOBEY      |K9S2 151655Z AUTO 20015G20KT 40SM 16/01 A3014 RMK AO1 T01610011
ROUNDUP     |KRPX 151715Z AUTO 21006KT 40SM 15/04 A3006 RMK AO1 T01500044
MALTA       |KM75 151715Z AUTO 00000KT 40SM 17/06 A3009 RMK AO1 T01720061






000
SXUS55 KMSO 151713
OSOMSO
MONTANA AWOS SUMMARY
NATIONAL WEATHER SERVICE MISSOULA MT
1113 AM MDT MON SEP 15 2014

Montana AWOS Reports

ROUNDUP     |KRPX 151655Z AUTO 21007KT 40SM 14/04 A3007 RMK AO1 T01390044
MALTA       |KM75 151655Z AUTO 00000KT 40SM 17/06 A3009 RMK AO1 T01670056






000
SXUS55 KMSO 151703
OSOMSO
MONTANA AWOS SUMMARY
NATIONAL WEATHER SERVICE MISSOULA MT
1103 AM MDT MON SEP 15 2014

Montana AWOS Reports

LAUREL      |K6S8 151655Z AUTO 00000KT 40SM 13/03 A3015 RMK AO1 T01330028






000
SXUS55 KMSO 151643
OSOMSO
MONTANA AWOS SUMMARY
NATIONAL WEATHER SERVICE MISSOULA MT
1043 AM MDT MON SEP 15 2014

Montana AWOS Reports

LAUREL      |K6S8 151635Z AUTO 00000KT 40SM 12/03 A3015 RMK AO1 T01220033
ROUNDUP     |KRPX 151635Z AUTO 20005KT 40SM 13/04 A3007 RMK AO1 T01280039
MALTA       |KM75 151635Z AUTO 00000KT 40SM 15/06 A3010 RMK AO1 T01500056






000
SXUS55 KMSO 151624
OSOMSO
MONTANA AWOS SUMMARY
NATIONAL WEATHER SERVICE MISSOULA MT
1023 AM MDT MON SEP 15 2014

Montana AWOS Reports

LAUREL      |K6S8 151615Z AUTO 00000KT 40SM 12/04 A3015 RMK AO1 T01170039
ROUNDUP     |KRPX 151615Z AUTO 00000KT 40SM 11/04 A3008 RMK AO1 T01110039






000
SXUS55 KMSO 151613
OSOMSO
MONTANA AWOS SUMMARY
NATIONAL WEATHER SERVICE MISSOULA MT
1013 AM MDT MON SEP 15 2014

Montana AWOS Reports

PLAINS      |KS34 151555Z AUTO 00000KT 40SM 11/02 A3010 RMK AO1 T01110017
SCOBEY      |K9S2 151555Z AUTO 00000KT 40SM 12/03 A3016 RMK AO1 T01170028
MALTA       |KM75 151455Z AUTO 00000KT 40SM 10/03 A3011 RMK AO1 T01000028






000
SXUS55 KMSO 151604
OSOMSO
MONTANA AWOS SUMMARY
NATIONAL WEATHER SERVICE MISSOULA MT
1003 AM MDT MON SEP 15 2014

Montana AWOS Reports

LAUREL      |K6S8 151555Z AUTO 00000KT 40SM 11/03 A3016 RMK AO1 T01060033
SCOBEY      |K9S2 151455Z AUTO 00000KT 40SM 08/01 A3016 RMK AO1 T00780011
ROUNDUP     |KRPX 151555Z AUTO 19005KT 40SM 10/03 A3008 RMK AO1 T01000033
MALTA       |KM75 151555Z AUTO 00000KT 40SM 13/04 A3010 RMK AO1 T01330044






000
SXUS55 KMSO 151543
OSOMSO
MONTANA AWOS SUMMARY
NATIONAL WEATHER SERVICE MISSOULA MT
943 AM MDT MON SEP 15 2014

Montana AWOS Reports

ROUNDUP     |KRPX 151535Z AUTO 19005KT 40SM 09/03 A3008 RMK AO1 T00890033
MALTA       |KM75 151535Z AUTO 00000KT 40SM 12/04 A3011 RMK AO1 T01220044






000
SXUS55 KMSO 151523
OSOMSO
MONTANA AWOS SUMMARY
NATIONAL WEATHER SERVICE MISSOULA MT
923 AM MDT MON SEP 15 2014

Montana AWOS Reports

LAUREL      |K6S8 151515Z AUTO 00000KT 40SM 08/02 A3016 RMK AO1 T00830022
ROUNDUP     |KRPX 151515Z AUTO 19004KT 40SM 08/03 A3008 RMK AO1 T00780028
MALTA       |KM75 151515Z AUTO 00000KT 40SM 11/03 A3011 RMK AO1 T01060033






000
SXUS55 KMSO 151513
OSOMSO
MONTANA AWOS SUMMARY
NATIONAL WEATHER SERVICE MISSOULA MT
913 AM MDT MON SEP 15 2014

Montana AWOS Reports

ROUNDUP     |KRPX 151455Z AUTO 19005KT 40SM 07/03 A3009 RMK AO1 T00670028






000
SXUS55 KMSO 151503
OSOMSO
MONTANA AWOS SUMMARY
NATIONAL WEATHER SERVICE MISSOULA MT
902 AM MDT MON SEP 15 2014

Montana AWOS Reports

LAUREL      |K6S8 151455Z AUTO 00000KT 40SM 07/02 A3016 RMK AO1 T00720022
PLAINS      |KS34 151455Z AUTO 00000KT 40SM 06/01 A3011 RMK AO1 T00560006






000
SXUS55 KMSO 151443
OSOMSO
MONTANA AWOS SUMMARY
NATIONAL WEATHER SERVICE MISSOULA MT
843 AM MDT MON SEP 15 2014

Montana AWOS Reports

LAUREL      |K6S8 151435Z AUTO 00000KT 40SM 07/03 A3016 RMK AO1 T00720028
ROUNDUP     |KRPX 151435Z AUTO 20007KT 40SM 06/03 A3009 RMK AO1 T00610028
MALTA       |KM75 151435Z AUTO 00000KT 40SM 09/02 A3011 RMK AO1 T00890022






000
SXUS55 KMSO 151424
OSOMSO
MONTANA AWOS SUMMARY
NATIONAL WEATHER SERVICE MISSOULA MT
823 AM MDT MON SEP 15 2014

Montana AWOS Reports

LAUREL      |K6S8 151415Z AUTO 00000KT 40SM 06/02 A3017 RMK AO1 T00610022
ROUNDUP     |KRPX 151415Z AUTO 20005KT 40SM 04/02 A3010 RMK AO1 T00440017
MALTA       |KM75 151415Z AUTO 00000KT 40SM 08/02 A3012 RMK AO1 T00830022






000
SXUS55 KMSO 151403
OSOMSO
MONTANA AWOS SUMMARY
NATIONAL WEATHER SERVICE MISSOULA MT
803 AM MDT MON SEP 15 2014

Montana AWOS Reports

ROUNDUP     |KRPX 151355Z AUTO 19008KT 40SM 04/01 A3009 RMK AO1 T00390011
MALTA       |KM75 151355Z AUTO 00000KT 40SM 07/02 A3012 RMK AO1 T00720017
SCOBEY      |K9S2 151355Z AUTO 00000KT 40SM 04/00 A3016 RMK AO1 T00440000
PLAINS      |KS34 151355Z AUTO 00000KT 25SM 01/M03 A3011 RMK AO1 T00061032






000
SXUS55 KMSO 151343
OSOMSO
MONTANA AWOS SUMMARY
NATIONAL WEATHER SERVICE MISSOULA MT
743 AM MDT MON SEP 15 2014

Montana AWOS Reports

LAUREL      |K6S8 151335Z AUTO 00000KT 40SM 04/01 A3017 RMK AO1 T00390006






000
SXUS55 KMSO 151333
OSOMSO
MONTANA AWOS SUMMARY
NATIONAL WEATHER SERVICE MISSOULA MT
733 AM MDT MON SEP 15 2014

Montana AWOS Reports

MALTA       |KM75 151255Z AUTO 00000KT 40SM 07/02 A3012 RMK AO1 T00670017






000
SXUS55 KMSO 151323
OSOMSO
MONTANA AWOS SUMMARY
NATIONAL WEATHER SERVICE MISSOULA MT
723 AM MDT MON SEP 15 2014

Montana AWOS Reports

LAUREL      |K6S8 151315Z AUTO 00000KT 40SM 03/00 A3017 RMK AO1 T00330000
ROUNDUP     |KRPX 151315Z AUTO 19007KT 40SM 03/01 A3010 RMK AO1 T00330006
MALTA       |KM75 151315Z AUTO 00000KT 40SM 06/01 A3012 RMK AO1 T00610011






000
SXUS55 KMSO 151313
OSOMSO
MONTANA AWOS SUMMARY
NATIONAL WEATHER SERVICE MISSOULA MT
713 AM MDT MON SEP 15 2014

Montana AWOS Reports

SCOBEY      |K9S2 151255Z AUTO 00000KT 40SM 02/M03 A3017 RMK AO1 T00221027






000
SXUS55 KMSO 151303
OSOMSO
MONTANA AWOS SUMMARY
NATIONAL WEATHER SERVICE MISSOULA MT
703 AM MDT MON SEP 15 2014

Montana AWOS Reports

LAUREL      |K6S8 151255Z AUTO 00000KT 40SM 04/01 A3017 RMK AO1 T00390006
ROUNDUP     |KRPX 151255Z AUTO 20008KT 40SM 03/01 A3010 RMK AO1 T00330006
PLAINS      |KS34 151255Z AUTO 00000KT 25SM 01/M03 A3011 RMK AO1 T00061032






000
SXUS55 KMSO 151243
OSOMSO
MONTANA AWOS SUMMARY
NATIONAL WEATHER SERVICE MISSOULA MT
643 AM MDT MON SEP 15 2014

Montana AWOS Reports

LAUREL      |K6S8 151235Z AUTO 00000KT 40SM 04/01 A3017 RMK AO1 T00390006
ROUNDUP     |KRPX 151235Z AUTO 20006KT 40SM 03/01 A3010 RMK AO1 T00330006
MALTA       |KM75 151235Z AUTO 00000KT 40SM 06/01 A3012 RMK AO1 T00610011






000
SXUS55 KMSO 151223
OSOMSO
MONTANA AWOS SUMMARY
NATIONAL WEATHER SERVICE MISSOULA MT
623 AM MDT MON SEP 15 2014

Montana AWOS Reports

ROUNDUP     |KRPX 151215Z AUTO 20005KT 40SM 03/01 A3010 RMK AO1 T00330006
MALTA       |KM75 151215Z AUTO 00000KT 40SM 07/02 A3012 RMK AO1 T00720017






000
SXUS55 KMSO 151213
OSOMSO
MONTANA AWOS SUMMARY
NATIONAL WEATHER SERVICE MISSOULA MT
613 AM MDT MON SEP 15 2014

Montana AWOS Reports

SCOBEY      |K9S2 151155Z AUTO 00000KT 40SM 01/M03 A3016 RMK AO1 T00111032






000
SXUS55 KMSO 151203
OSOMSO
MONTANA AWOS SUMMARY
NATIONAL WEATHER SERVICE MISSOULA MT
602 AM MDT MON SEP 15 2014

Montana AWOS Reports

LAUREL      |K6S8 151155Z AUTO 00000KT 25SM 02/M01 A3017 RMK AO1 T00221005
MALTA       |KM75 151155Z AUTO 00000KT 40SM 08/02 A3012 RMK AO1 T00780017






000
SXUS55 KMSO 151143
OSOMSO
MONTANA AWOS SUMMARY
NATIONAL WEATHER SERVICE MISSOULA MT
543 AM MDT MON SEP 15 2014

Montana AWOS Reports

LAUREL      |K6S8 151135Z AUTO 00000KT 40SM 03/M01 A3017 RMK AO1 T00281010
ROUNDUP     |KRPX 151135Z AUTO 20009KT 40SM 03/01 A3011 RMK AO1 T00280006






000
SXUS55 KMSO 151123
OSOMSO
MONTANA AWOS SUMMARY
NATIONAL WEATHER SERVICE MISSOULA MT
523 AM MDT MON SEP 15 2014

Montana AWOS Reports

ROUNDUP     |KRPX 151115Z AUTO 21004KT 40SM 03/01 A3011 RMK AO1 T00280006
MALTA       |KM75 151115Z AUTO 00000KT 40SM 07/02 A3013 RMK AO1 T00720017






000
SXUS55 KMSO 151103
OSOMSO
MONTANA AWOS SUMMARY
NATIONAL WEATHER SERVICE MISSOULA MT
503 AM MDT MON SEP 15 2014

Montana AWOS Reports

ROUNDUP     |KRPX 151055Z AUTO 00000KT 40SM 03/00 A3011 RMK AO1 T00280000
PLAINS      |KS34 151055Z AUTO 00000KT 40SM 02/M02 A3009 RMK AO1 T00221021
SCOBEY      |K9S2 151055Z AUTO 20005KT 40SM 02/M03 A3016 RMK AO1 T00171027






000
SXUS55 KMSO 151053
OSOMSO
MONTANA AWOS SUMMARY
NATIONAL WEATHER SERVICE MISSOULA MT
453 AM MDT MON SEP 15 2014

Montana AWOS Reports

ROUNDUP     |KRPX 151035Z AUTO 00000KT 40SM 03/00 A3011 RMK AO1 T00280000
MALTA       |KM75 151035Z AUTO 00000KT 40SM 08/02 A3013 RMK AO1 T00780022






000
SXUS55 KMSO 151043
OSOMSO
MONTANA AWOS SUMMARY
NATIONAL WEATHER SERVICE MISSOULA MT
443 AM MDT MON SEP 15 2014

Montana AWOS Reports

LAUREL      |K6S8 151035Z AUTO 00000KT 40SM 03/00 A3018 RMK AO1 T00330000






000
SXUS55 KMSO 151023
OSOMSO
MONTANA AWOS SUMMARY
NATIONAL WEATHER SERVICE MISSOULA MT
423 AM MDT MON SEP 15 2014

Montana AWOS Reports

LAUREL      |K6S8 151015Z AUTO 00000KT 40SM 04/01 A3018 RMK AO1 T00440006
MALTA       |KM75 151015Z AUTO 00000KT 40SM 08/02 A3013 RMK AO1 T00830022
ROUNDUP     |KRPX 151015Z AUTO 00000KT 40SM 03/01 A3011 RMK AO1 T00330006






000
SXUS55 KMSO 151004
OSOMSO
MONTANA AWOS SUMMARY
NATIONAL WEATHER SERVICE MISSOULA MT
403 AM MDT MON SEP 15 2014

Montana AWOS Reports

ROUNDUP     |KRPX 150955Z AUTO 00000KT 40SM 03/01 A3012 RMK AO1 T00330006
PLAINS      |KS34 150955Z AUTO 00000KT 40SM 03/M03 A3008 RMK AO1 T00331027
SCOBEY      |K9S2 150955Z AUTO 00000KT 40SM 02/M02 A3016 RMK AO1 T00221021
MALTA       |KM75 150955Z AUTO 00000KT 40SM 08/03 A3013 RMK AO1 T00830028






000
SXUS55 KMSO 150953
OSOMSO
MONTANA AWOS SUMMARY
NATIONAL WEATHER SERVICE MISSOULA MT
353 AM MDT MON SEP 15 2014

Montana AWOS Reports

MALTA       |KM75 150855Z AUTO 00000KT 40SM 08/03 A3014 RMK AO1 T00780028






000
SXUS55 KMSO 150943
OSOMSO
MONTANA AWOS SUMMARY
NATIONAL WEATHER SERVICE MISSOULA MT
342 AM MDT MON SEP 15 2014

Montana AWOS Reports

LAUREL      |K6S8 150935Z AUTO 00000KT 40SM 06/02 A3018 RMK AO1 T00610017
ROUNDUP     |KRPX 150935Z AUTO 00000KT 40SM 03/01 A3012 RMK AO1 T00330006






000
SXUS55 KMSO 150923
OSOMSO
MONTANA AWOS SUMMARY
NATIONAL WEATHER SERVICE MISSOULA MT
323 AM MDT MON SEP 15 2014

Montana AWOS Reports

LAUREL      |K6S8 150915Z AUTO 00000KT 40SM 06/01 A3018 RMK AO1 T00560011
ROUNDUP     |KRPX 150915Z AUTO 00000KT 40SM 03/01 A3012 RMK AO1 T00330006
MALTA       |KM75 150915Z AUTO 00000KT 40SM 08/03 A3014 RMK AO1 T00780028






000
SXUS55 KMSO 150913
OSOMSO
MONTANA AWOS SUMMARY
NATIONAL WEATHER SERVICE MISSOULA MT
313 AM MDT MON SEP 15 2014

Montana AWOS Reports

ROUNDUP     |KRPX 150855Z AUTO 00000KT 40SM 04/01 A3012 RMK AO1 T00390006
PLAINS      |KS34 150855Z AUTO 00000KT 40SM 04/M01 A3007 RMK AO1 T00441010






000
SXUS55 KMSO 150903
OSOMSO
MONTANA AWOS SUMMARY
NATIONAL WEATHER SERVICE MISSOULA MT
302 AM MDT MON SEP 15 2014

Montana AWOS Reports

LAUREL      |K6S8 150855Z AUTO 00000KT 40SM 07/01 A3019 RMK AO1 T00670011
SCOBEY      |K9S2 150855Z AUTO 00000KT 40SM 03/M02 A3016 RMK AO1 T00281021






000
SXUS55 KMSO 150854
OSOMSO
MONTANA AWOS SUMMARY
NATIONAL WEATHER SERVICE MISSOULA MT
253 AM MDT MON SEP 15 2014

Montana AWOS Reports

MALTA       |KM75 150555Z AUTO 00000KT 40SM 08/03 A3014 RMK AO1 T00780033






000
SXUS55 KMSO 150843
OSOMSO
MONTANA AWOS SUMMARY
NATIONAL WEATHER SERVICE MISSOULA MT
243 AM MDT MON SEP 15 2014

Montana AWOS Reports

LAUREL      |K6S8 150835Z AUTO 00000KT 40SM 07/02 A3019 RMK AO1 T00670017






000
SXUS55 KMSO 150824
OSOMSO
MONTANA AWOS SUMMARY
NATIONAL WEATHER SERVICE MISSOULA MT
223 AM MDT MON SEP 15 2014

Montana AWOS Reports

LAUREL      |K6S8 150815Z AUTO 00000KT 40SM 06/01 A3019 RMK AO1 T00610011
ROUNDUP     |KRPX 150815Z AUTO 00000KT 40SM 05/01 A3013 RMK AO1 T00500011
MALTA       |KM75 150815Z AUTO 00000KT 40SM 08/03 A3014 RMK AO1 T00780028






000
SXUS55 KMSO 150803
OSOMSO
MONTANA AWOS SUMMARY
NATIONAL WEATHER SERVICE MISSOULA MT
203 AM MDT MON SEP 15 2014

Montana AWOS Reports

ROUNDUP     |KRPX 150755Z AUTO 00000KT 40SM 05/02 A3013 RMK AO1 T00500017
MALTA       |KM75 150755Z AUTO 00000KT 40SM 08/03 A3014 RMK AO1 T00780028
SCOBEY      |K9S2 150755Z AUTO 00000KT 40SM 02/M03 A3016 RMK AO1 T00171027
PLAINS      |KS34 150755Z AUTO 00000KT 40SM 06/M01 A3007 RMK AO1 T00561010






000
SXUS55 KMSO 150753
OSOMSO
MONTANA AWOS SUMMARY
NATIONAL WEATHER SERVICE MISSOULA MT
153 AM MDT MON SEP 15 2014

Montana AWOS Reports

ROUNDUP     |KRPX 150735Z AUTO 00000KT 40SM 07/02 A3013 RMK AO1 T00670017






000
SXUS55 KMSO 150744
OSOMSO
MONTANA AWOS SUMMARY
NATIONAL WEATHER SERVICE MISSOULA MT
143 AM MDT MON SEP 15 2014

Montana AWOS Reports

LAUREL      |K6S8 150735Z AUTO 00000KT 40SM 07/01 A3019 RMK AO1 T00720011






000
SXUS55 KMSO 150723
OSOMSO
MONTANA AWOS SUMMARY
NATIONAL WEATHER SERVICE MISSOULA MT
123 AM MDT MON SEP 15 2014

Montana AWOS Reports

LAUREL      |K6S8 150715Z AUTO 00000KT 40SM 07/01 A3019 RMK AO1 T00670011
MALTA       |KM75 150715Z AUTO 00000KT 40SM 08/04 A3014 RMK AO1 T00830039
ROUNDUP     |KRPX 150715Z AUTO 00000KT 40SM 06/02 A3013 RMK AO1 T00610017






000
SXUS55 KMSO 150703
OSOMSO
MONTANA AWOS SUMMARY
NATIONAL WEATHER SERVICE MISSOULA MT
103 AM MDT MON SEP 15 2014

Montana AWOS Reports

LAUREL      |K6S8 150655Z AUTO 00000KT 40SM 07/01 A3019 RMK AO1 T00720011
ROUNDUP     |KRPX 150655Z AUTO 00000KT 40SM 07/02 A3012 RMK AO1 T00720017
MALTA       |KM75 150655Z AUTO 40SM 08/03 A3014 RMK AO1 T00830033
PLAINS      |KS34 150655Z AUTO 00000KT 40SM 06/00 A3007 RMK AO1 T00610000
SCOBEY      |K9S2 150655Z AUTO 00000KT 40SM 02/M02 A3016 RMK AO1 T00221021






000
SXUS55 KMSO 150653
OSOMSO
MONTANA AWOS SUMMARY
NATIONAL WEATHER SERVICE MISSOULA MT
1252 AM MDT MON SEP 15 2014

Montana AWOS Reports

LAUREL      |K6S8 150635Z AUTO 00000KT 40SM 07/01 A3019 RMK AO1 T00720011
ROUNDUP     |KRPX 150635Z AUTO 00000KT 40SM 07/02 A3012 RMK AO1 T00670017






000
SXUS55 KMSO 150623
OSOMSO
MONTANA AWOS SUMMARY
NATIONAL WEATHER SERVICE MISSOULA MT
1222 AM MDT MON SEP 15 2014

Montana AWOS Reports

LAUREL      |K6S8 150615Z AUTO 00000KT 40SM 08/01 A3019 RMK AO1 T00780011
ROUNDUP     |KRPX 150615Z AUTO 00000KT 40SM 08/02 A3012 RMK AO1 T00780017
MALTA       |KM75 150615Z AUTO 00000KT 40SM 08/03 A3013 RMK AO1 T00830033






000
SXUS55 KMSO 150613
OSOMSO
MONTANA AWOS SUMMARY
NATIONAL WEATHER SERVICE MISSOULA MT
1213 AM MDT MON SEP 15 2014

Montana AWOS Reports

LAUREL      |K6S8 150555Z AUTO 00000KT 40SM 08/02 A3018 RMK AO1 T00830017
PLAINS      |KS34 150555Z AUTO 00000KT 40SM 08/01 A3006 RMK AO1 T00780011






000
SXUS55 KMSO 150603
OSOMSO
MONTANA AWOS SUMMARY
NATIONAL WEATHER SERVICE MISSOULA MT
1203 AM MDT MON SEP 15 2014

Montana AWOS Reports

ROUNDUP     |KRPX 150555Z AUTO 00000KT 40SM 09/02 A3012 RMK AO1 T00890017
MALTA       |KM75 150555Z AUTO 00000KT 40SM 08/03 A3014 RMK AO1 T00780033






000
SXUS55 KMSO 150544
OSOMSO
MONTANA AWOS SUMMARY
NATIONAL WEATHER SERVICE MISSOULA MT
1143 PM MDT SUN SEP 14 2014

Montana AWOS Reports

LAUREL      |K6S8 150535Z AUTO 00000KT 40SM 08/02 A3018 RMK AO1 T00830017
ROUNDUP     |KRPX 150535Z AUTO 00000KT 40SM 08/02 A3012 RMK AO1 T00780022
MALTA       |KM75 150535Z AUTO 00000KT 40SM 08/03 A3014 RMK AO1 T00780033






000
SXUS55 KMSO 150523
OSOMSO
MONTANA AWOS SUMMARY
NATIONAL WEATHER SERVICE MISSOULA MT
1123 PM MDT SUN SEP 14 2014

Montana AWOS Reports

LAUREL      |K6S8 150515Z AUTO 00000KT 40SM 08/02 A3018 RMK AO1 T00830017
ROUNDUP     |KRPX 150515Z AUTO 00000KT 40SM 08/02 A3011 RMK AO1 T00780022
MALTA       |KM75 150515Z AUTO 00000KT 40SM 09/04 A3014 RMK AO1 T00890039






000
SXUS55 KMSO 150513
OSOMSO
MONTANA AWOS SUMMARY
NATIONAL WEATHER SERVICE MISSOULA MT
1113 PM MDT SUN SEP 14 2014

Montana AWOS Reports

SCOBEY      |K9S2 150455Z AUTO 00000KT 40SM 03/M02 A3015 RMK AO1 T00331016
PLAINS      |KS34 150455Z AUTO 00000KT 40SM 09/01 A3005 RMK AO1 T00940006






000
SXUS55 KMSO 150503
OSOMSO
MONTANA AWOS SUMMARY
NATIONAL WEATHER SERVICE MISSOULA MT
1102 PM MDT SUN SEP 14 2014

Montana AWOS Reports

MALTA       |KM75 150455Z AUTO 00000KT 40SM 09/03 A3014 RMK AO1 T00940033






000
SXUS55 KMSO 150443
OSOMSO
MONTANA AWOS SUMMARY
NATIONAL WEATHER SERVICE MISSOULA MT
1043 PM MDT SUN SEP 14 2014

Montana AWOS Reports

LAUREL      |K6S8 150435Z AUTO 00000KT 40SM 09/02 A3017 RMK AO1 T00890017
ROUNDUP     |KRPX 150435Z AUTO 00000KT 40SM 09/02 A3011 RMK AO1 T00940022






000
SXUS55 KMSO 150423
OSOMSO
MONTANA AWOS SUMMARY
NATIONAL WEATHER SERVICE MISSOULA MT
1023 PM MDT SUN SEP 14 2014

Montana AWOS Reports

LAUREL      |K6S8 150415Z AUTO 00000KT 40SM 09/02 A3017 RMK AO1 T00890017
ROUNDUP     |KRPX 150415Z AUTO 00000KT 40SM 10/02 A3010 RMK AO1 T01000022
MALTA       |KM75 150415Z AUTO 00000KT 40SM 09/04 A3013 RMK AO1 T00890039






000
SXUS55 KMSO 150413
OSOMSO
MONTANA AWOS SUMMARY
NATIONAL WEATHER SERVICE MISSOULA MT
1013 PM MDT SUN SEP 14 2014

Montana AWOS Reports

SCOBEY      |K9S2 150355Z AUTO 00000KT 40SM 07/M01 A3015 RMK AO1 T00671005
PLAINS      |KS34 150355Z AUTO 00000KT 40SM 12/02 A3005 RMK AO1 T01220022






000
SXUS55 KMSO 150403
OSOMSO
MONTANA AWOS SUMMARY
NATIONAL WEATHER SERVICE MISSOULA MT
1003 PM MDT SUN SEP 14 2014

Montana AWOS Reports

MALTA       |KM75 150355Z AUTO 00000KT 40SM 09/04 A3013 RMK AO1 T00890039






000
SXUS55 KMSO 150343
OSOMSO
MONTANA AWOS SUMMARY
NATIONAL WEATHER SERVICE MISSOULA MT
943 PM MDT SUN SEP 14 2014

Montana AWOS Reports

LAUREL      |K6S8 150335Z AUTO 00000KT 40SM 10/02 A3016 RMK AO1 T01000022
ROUNDUP     |KRPX 150335Z AUTO 00000KT 40SM 10/02 A3009 RMK AO1 T01000022
MALTA       |KM75 150335Z AUTO 00000KT 40SM 09/04 A3013 RMK AO1 T00890044






000
SXUS55 KMSO 150323
OSOMSO
MONTANA AWOS SUMMARY
NATIONAL WEATHER SERVICE MISSOULA MT
923 PM MDT SUN SEP 14 2014

Montana AWOS Reports

LAUREL      |K6S8 150315Z AUTO 00000KT 40SM 11/02 A3016 RMK AO1 T01060022
ROUNDUP     |KRPX 150315Z AUTO 00000KT 40SM 10/02 A3009 RMK AO1 T01000017






000
SXUS55 KMSO 150313
OSOMSO
MONTANA AWOS SUMMARY
NATIONAL WEATHER SERVICE MISSOULA MT
913 PM MDT SUN SEP 14 2014

Montana AWOS Reports

MALTA       |KM75 150255Z AUTO 00000KT 40SM 10/06 A3012 RMK AO1 T01000056






000
SXUS55 KMSO 150243
OSOMSO
MONTANA AWOS SUMMARY
NATIONAL WEATHER SERVICE MISSOULA MT
843 PM MDT SUN SEP 14 2014

Montana AWOS Reports

LAUREL      |K6S8 150235Z AUTO 00000KT 40SM 12/02 A3015 RMK AO1 T01170022
ROUNDUP     |KRPX 150235Z AUTO 00000KT 40SM 11/02 A3008 RMK AO1 T01110022






000
SXUS55 KMSO 150233
OSOMSO
MONTANA AWOS SUMMARY
NATIONAL WEATHER SERVICE MISSOULA MT
833 PM MDT SUN SEP 14 2014

Montana AWOS Reports

LAUREL      |K6S8 150215Z AUTO 35004KT 40SM 12/02 A3014 RMK AO1 T01170022
MALTA       |KM75 150155Z AUTO 00000KT 40SM 12/07 A3011 RMK AO1 T01220067






000
SXUS55 KMSO 150223
OSOMSO
MONTANA AWOS SUMMARY
NATIONAL WEATHER SERVICE MISSOULA MT
823 PM MDT SUN SEP 14 2014

Montana AWOS Reports

ROUNDUP     |KRPX 150215Z AUTO 00000KT 40SM 11/02 A3008 RMK AO1 T01110017
MALTA       |KM75 150215Z AUTO 00000KT 40SM 11/06 A3011 RMK AO1 T01060056






000
SXUS55 KMSO 150203
OSOMSO
MONTANA AWOS SUMMARY
NATIONAL WEATHER SERVICE MISSOULA MT
803 PM MDT SUN SEP 14 2014

Montana AWOS Reports

LAUREL      |K6S8 150155Z AUTO 00000KT 40SM 13/02 A3013 RMK AO1 T01280022
ROUNDUP     |KRPX 150155Z AUTO 00000KT 40SM 12/02 A3007 RMK AO1 T01170022
SCOBEY      |K9S2 150155Z AUTO 20005KT 40SM 10/01 A3013 RMK AO1 T01000006






000
SXUS55 KMSO 150153
OSOMSO
MONTANA AWOS SUMMARY
NATIONAL WEATHER SERVICE MISSOULA MT
752 PM MDT SUN SEP 14 2014

Montana AWOS Reports

LAUREL      |K6S8 150135Z AUTO 00000KT 40SM 13/03 A3012 RMK AO1 T01330028
ROUNDUP     |KRPX 150135Z AUTO 00000KT 40SM 13/03 A3006 RMK AO1 T01280028






000
SXUS55 KMSO 150143
OSOMSO
MONTANA AWOS SUMMARY
NATIONAL WEATHER SERVICE MISSOULA MT
743 PM MDT SUN SEP 14 2014

Montana AWOS Reports

MALTA       |KM75 150135Z AUTO 00000KT 40SM 13/06 A3011 RMK AO1 T01330061






000
SXUS55 KMSO 150133
OSOMSO
MONTANA AWOS SUMMARY
NATIONAL WEATHER SERVICE MISSOULA MT
733 PM MDT SUN SEP 14 2014

Montana AWOS Reports

LAUREL      |K6S8 150115Z AUTO 00000KT 40SM 15/04 A3012 RMK AO1 T01500039






000
SXUS55 KMSO 150123
OSOMSO
MONTANA AWOS SUMMARY
NATIONAL WEATHER SERVICE MISSOULA MT
723 PM MDT SUN SEP 14 2014

Montana AWOS Reports

ROUNDUP     |KRPX 150115Z AUTO 00000KT 40SM 14/03 A3006 RMK AO1 T01390033
MALTA       |KM75 150115Z AUTO 00000KT 40SM 15/06 A3010 RMK AO1 T01500061






000
SXUS55 KMSO 150103
OSOMSO
MONTANA AWOS SUMMARY
NATIONAL WEATHER SERVICE MISSOULA MT
703 PM MDT SUN SEP 14 2014

Montana AWOS Reports

LAUREL      |K6S8 150055Z AUTO 00000KT 40SM 16/04 A3011 RMK AO1 T01610039
ROUNDUP     |KRPX 150055Z AUTO 01007KT 40SM 15/03 A3005 RMK AO1 T01500033
MALTA       |KM75 150055Z AUTO 00000KT 40SM 16/05 A3010 RMK AO1 T01560050
SCOBEY      |K9S2 150055Z AUTO 00000KT 40SM 12/01 A3013 RMK AO1 T01170006
PLAINS      |KS34 150055Z AUTO 00000KT 40SM 24/00 A3002 RMK AO1 T02390000






000
SXUS55 KMSO 150044
OSOMSO
MONTANA AWOS SUMMARY
NATIONAL WEATHER SERVICE MISSOULA MT
643 PM MDT SUN SEP 14 2014

Montana AWOS Reports

ROUNDUP     |KRPX 150035Z AUTO 01007KT 40SM 16/03 A3004 RMK AO1 T01560033
LAUREL      |K6S8 150035Z AUTO 04008KT 40SM 17/03 A3010 RMK AO1 T01670033






000
SXUS55 KMSO 150024
OSOMSO
MONTANA AWOS SUMMARY
NATIONAL WEATHER SERVICE MISSOULA MT
623 PM MDT SUN SEP 14 2014

Montana AWOS Reports

ROUNDUP     |KRPX 150015Z AUTO 02006KT 40SM 16/04 A3004 RMK AO1 T01610039
LAUREL      |K6S8 150015Z AUTO 02008KT 40SM 17/03 A3010 RMK AO1 T01720033






000
SXUS55 KMSO 150013
OSOMSO
MONTANA AWOS SUMMARY
NATIONAL WEATHER SERVICE MISSOULA MT
613 PM MDT SUN SEP 14 2014

Montana AWOS Reports

MALTA       |KM75 142355Z AUTO 00000KT 40SM 16/03 A3009 RMK AO1 T01610033






000
SXUS55 KMSO 150004
OSOMSO
MONTANA AWOS SUMMARY
NATIONAL WEATHER SERVICE MISSOULA MT
603 PM MDT SUN SEP 14 2014

Montana AWOS Reports

LAUREL      |K6S8 142355Z AUTO 06007KT 40SM 17/03 A3009 RMK AO1 T01720033
ROUNDUP     |KRPX 142355Z AUTO 34008KT 40SM 17/03 A3003 RMK AO1 T01670028
MALTA       |KM75 142355Z AUTO 00000KT 40SM 16/03 A3009 RMK AO1 T01610033
SCOBEY      |K9S2 142355Z AUTO 20004KT 40SM 13/M02 A3012 RMK AO1 T01331016






000
SXUS55 KMSO 142353
OSOMSO
MONTANA AWOS SUMMARY
NATIONAL WEATHER SERVICE MISSOULA MT
553 PM MDT SUN SEP 14 2014

Montana AWOS Reports

LAUREL      |K6S8 142335Z AUTO 05008KT 40SM 18/03 A3009 RMK AO1 T01780033
ROUNDUP     |KRPX 142335Z AUTO 17008KT 080V260 40SM 17/04 A3003 RMK AO1 T01720039
MALTA       |KM75 142335Z AUTO 00000KT 40SM 16/03 A3009 RMK AO1 T01610033






000
SXUS55 KMSO 142323
OSOMSO
MONTANA AWOS SUMMARY
NATIONAL WEATHER SERVICE MISSOULA MT
523 PM MDT SUN SEP 14 2014

Montana AWOS Reports

LAUREL      |K6S8 142315Z AUTO 06006KT 40SM 18/03 A3008 RMK AO1 T01780033
ROUNDUP     |KRPX 142315Z AUTO 34009G13KT 40SM 17/03 A3002 RMK AO1 T01720033






000
SXUS55 KMSO 142313
OSOMSO
MONTANA AWOS SUMMARY
NATIONAL WEATHER SERVICE MISSOULA MT
513 PM MDT SUN SEP 14 2014

Montana AWOS Reports

MALTA       |KM75 142255Z AUTO 00000KT 40SM 16/03 A3009 RMK AO1 T01610028
PLAINS      |KS34 142255Z AUTO 00000KT 40SM 26/01 A3002 RMK AO1 T02560011






000
SXUS55 KMSO 142303
OSOMSO
MONTANA AWOS SUMMARY
NATIONAL WEATHER SERVICE MISSOULA MT
503 PM MDT SUN SEP 14 2014

Montana AWOS Reports

ROUNDUP     |KRPX 142255Z AUTO 01008KT 40SM 17/03 A3002 RMK AO1 T01720028
LAUREL      |K6S8 142255Z AUTO 06008KT 40SM 18/03 A3008 RMK AO1 T01780033
SCOBEY      |K9S2 142255Z AUTO 19006KT 40SM 14/M01 A3012 RMK AO1 T01391010






000
SXUS55 KMSO 142243
OSOMSO
MONTANA AWOS SUMMARY
NATIONAL WEATHER SERVICE MISSOULA MT
443 PM MDT SUN SEP 14 2014

Montana AWOS Reports

ROUNDUP     |KRPX 142235Z AUTO 00000KT 40SM 17/03 A3001 RMK AO1 T01670033
MALTA       |KM75 142235Z AUTO 00000KT 40SM 16/03 A3008 RMK AO1 T01610033
LAUREL      |K6S8 142235Z AUTO 07005KT 40SM 18/04 A3007 RMK AO1 T01830039






000
SXUS55 KMSO 142223
OSOMSO
MONTANA AWOS SUMMARY
NATIONAL WEATHER SERVICE MISSOULA MT
423 PM MDT SUN SEP 14 2014

Montana AWOS Reports

LAUREL      |K6S8 142215Z AUTO 05006KT 40SM 18/04 A3007 RMK AO1 T01830039
ROUNDUP     |KRPX 142215Z AUTO 03007KT 40SM 17/03 A3001 RMK AO1 T01720033






000
SXUS55 KMSO 142213
OSOMSO
MONTANA AWOS SUMMARY
NATIONAL WEATHER SERVICE MISSOULA MT
413 PM MDT SUN SEP 14 2014

Montana AWOS Reports

PLAINS      |KS34 142155Z AUTO 00000KT 40SM 24/01 A3003 RMK AO1 T02440006






000
SXUS55 KMSO 142203
OSOMSO
MONTANA AWOS SUMMARY
NATIONAL WEATHER SERVICE MISSOULA MT
403 PM MDT SUN SEP 14 2014

Montana AWOS Reports

LAUREL      |K6S8 142155Z AUTO 01007KT 40SM 19/02 A3006 RMK AO1 T01890022
ROUNDUP     |KRPX 142155Z AUTO 01004KT 40SM 17/03 A3001 RMK AO1 T01670033
SCOBEY      |K9S2 142155Z AUTO 21007KT 40SM 13/M02 A3012 RMK AO1 T01331016
MALTA       |KM75 142155Z AUTO 00000KT 40SM 16/03 A3008 RMK AO1 T01610033






000
SXUS55 KMSO 142143
OSOMSO
MONTANA AWOS SUMMARY
NATIONAL WEATHER SERVICE MISSOULA MT
343 PM MDT SUN SEP 14 2014

Montana AWOS Reports

ROUNDUP     |KRPX 142135Z AUTO VRB04KT 40SM 17/03 A3001 RMK AO1 T01670033
LAUREL      |K6S8 142135Z AUTO 04006KT 40SM 18/04 A3006 RMK AO1 T01830039






000
SXUS55 KMSO 142124
OSOMSO
MONTANA AWOS SUMMARY
NATIONAL WEATHER SERVICE MISSOULA MT
323 PM MDT SUN SEP 14 2014

Montana AWOS Reports

ROUNDUP     |KRPX 142115Z AUTO 34008KT 40SM 17/04 A3001 RMK AO1 T01670039
LAUREL      |K6S8 142115Z AUTO 36005KT 40SM 18/03 A3006 RMK AO1 T01780033






000
SXUS55 KMSO 142113
OSOMSO
MONTANA AWOS SUMMARY
NATIONAL WEATHER SERVICE MISSOULA MT
312 PM MDT SUN SEP 14 2014

Montana AWOS Reports

LAUREL      |K6S8 142055Z AUTO VRB04KT 40SM 17/03 A3006 RMK AO1 T01720033
ROUNDUP     |KRPX 142055Z AUTO 03006KT 40SM 17/03 A3000 RMK AO1 T01670033
MALTA       |KM75 142055Z AUTO 00000KT 40SM 16/03 A3008 RMK AO1 T01560028
PLAINS      |KS34 142055Z AUTO 00000KT 40SM 23/00 A3005 RMK AO1 T02330000






000
SXUS55 KMSO 142104
OSOMSO
MONTANA AWOS SUMMARY
NATIONAL WEATHER SERVICE MISSOULA MT
303 PM MDT SUN SEP 14 2014

Montana AWOS Reports

SCOBEY      |K9S2 142055Z AUTO 21004KT 40SM 13/M02 A3011 RMK AO1 T01331021






000
SXUS55 KMSO 142053
OSOMSO
MONTANA AWOS SUMMARY
NATIONAL WEATHER SERVICE MISSOULA MT
253 PM MDT SUN SEP 14 2014

Montana AWOS Reports

LAUREL      |K6S8 142035Z AUTO 00000KT 40SM 17/03 A3006 RMK AO1 T01670033
ROUNDUP     |KRPX 142035Z AUTO 00000KT 40SM 16/03 A3000 RMK AO1 T01610033
MALTA       |KM75 142035Z AUTO 00000KT 40SM 16/03 A3008 RMK AO1 T01560033






000
SXUS55 KMSO 142033
OSOMSO
MONTANA AWOS SUMMARY
NATIONAL WEATHER SERVICE MISSOULA MT
233 PM MDT SUN SEP 14 2014

Montana AWOS Reports

LAUREL      |K6S8 142015Z AUTO 08006KT 40SM 17/03 A3006 RMK AO1 T01670033






000
SXUS55 KMSO 142023
OSOMSO
MONTANA AWOS SUMMARY
NATIONAL WEATHER SERVICE MISSOULA MT
223 PM MDT SUN SEP 14 2014

Montana AWOS Reports

ROUNDUP     |KRPX 142015Z AUTO 00000KT 40SM 15/03 A3000 RMK AO1 T01500028






000
SXUS55 KMSO 142003
OSOMSO
MONTANA AWOS SUMMARY
NATIONAL WEATHER SERVICE MISSOULA MT
203 PM MDT SUN SEP 14 2014

Montana AWOS Reports

LAUREL      |K6S8 141955Z AUTO 02005KT 40SM 16/02 A3006 RMK AO1 T01610017
ROUNDUP     |KRPX 141955Z AUTO 07007KT 40SM 15/03 A3000 RMK AO1 T01500028
MALTA       |KM75 141955Z AUTO 00000KT 40SM 15/04 A3008 RMK AO1 T01500039
SCOBEY      |K9S2 141955Z AUTO 00000KT 40SM 13/M02 A3012 RMK AO1 T01331021
PLAINS      |KS34 141955Z AUTO 00000KT 40SM 22/01 A3006 RMK AO1 T02220006






000
SXUS55 KMSO 141943
OSOMSO
MONTANA AWOS SUMMARY
NATIONAL WEATHER SERVICE MISSOULA MT
143 PM MDT SUN SEP 14 2014

Montana AWOS Reports

LAUREL      |K6S8 141935Z AUTO 00000KT 40SM 16/02 A3007 RMK AO1 T01560022
ROUNDUP     |KRPX 141935Z AUTO 00000KT 40SM 14/03 A3000 RMK AO1 T01440028
MALTA       |KM75 141935Z AUTO 00000KT 40SM 15/04 A3008 RMK AO1 T01500044






000
SXUS55 KMSO 141924
OSOMSO
MONTANA AWOS SUMMARY
NATIONAL WEATHER SERVICE MISSOULA MT
123 PM MDT SUN SEP 14 2014

Montana AWOS Reports

LAUREL      |K6S8 141915Z AUTO 06005KT 40SM 15/01 A3007 RMK AO1 T01500011
ROUNDUP     |KRPX 141915Z AUTO 00000KT 40SM 14/03 A3000 RMK AO1 T01390028
MALTA       |KM75 141915Z AUTO 00000KT 40SM 14/04 A3008 RMK AO1 T01440044






000
SXUS55 KMSO 141903
OSOMSO
MONTANA AWOS SUMMARY
NATIONAL WEATHER SERVICE MISSOULA MT
103 PM MDT SUN SEP 14 2014

Montana AWOS Reports

LAUREL      |K6S8 141855Z AUTO 00000KT 40SM 14/01 A3007 RMK AO1 T01390006
ROUNDUP     |KRPX 141855Z AUTO 00000KT 40SM 14/03 A3001 RMK AO1 T01390028
MALTA       |KM75 141855Z AUTO 00000KT 40SM 14/04 A3009 RMK AO1 T01390044
PLAINS      |KS34 141855Z AUTO 00000KT 40SM 19/00 A3008 RMK AO1 T01940000
SCOBEY      |K9S2 141855Z AUTO 00000KT 40SM 13/M02 A3013 RMK AO1 T01281021






000
SXUS55 KMSO 141853
OSOMSO
MONTANA AWOS SUMMARY
NATIONAL WEATHER SERVICE MISSOULA MT
1252 PM MDT SUN SEP 14 2014

Montana AWOS Reports

LAUREL      |K6S8 141835Z AUTO 00000KT 25SM 13/02 A3008 RMK AO1 T01330022
ROUNDUP     |KRPX 141835Z AUTO 00000KT 40SM 13/03 A3001 RMK AO1 T01330028






000
SXUS55 KMSO 141824
OSOMSO
MONTANA AWOS SUMMARY
NATIONAL WEATHER SERVICE MISSOULA MT
1223 PM MDT SUN SEP 14 2014

Montana AWOS Reports

LAUREL      |K6S8 141815Z AUTO 00000KT 40SM 13/02 A3008 RMK AO1 T01280017
ROUNDUP     |KRPX 141815Z AUTO 00000KT 40SM 13/03 A3001 RMK AO1 T01280033






000
SXUS55 KMSO 141804
OSOMSO
MONTANA AWOS SUMMARY
NATIONAL WEATHER SERVICE MISSOULA MT
1203 PM MDT SUN SEP 14 2014

Montana AWOS Reports

ROUNDUP     |KRPX 141755Z AUTO 00000KT 40SM 12/02 A3001 RMK AO1 T01220022
MALTA       |KM75 141755Z AUTO 07004KT 40SM 13/06 A3010 RMK AO1 T01280056
PLAINS      |KS34 141755Z AUTO 00000KT 40SM 17/00 A3009 RMK AO1 T01670000
LAUREL      |K6S8 141755Z AUTO 00000KT 40SM 12/02 A3008 RMK AO1 T01220022
SCOBEY      |K9S2 141755Z AUTO 00000KT 40SM 12/M02 A3014 RMK AO1 T01221016
MALTA       |KM75 141755Z AUTO 07004KT 40SM 13/06 A3010 RMK AO1 T01280056






    US Dept of Commerce
    National Oceanic and Atmospheric Administration
    National Weather Service
    1325 East West Highway
    Silver Spring, MD 20910
    Page Author: NWS Internet Services Team
Disclaimer
Information Quality
Credits
Glossary
Privacy Policy
Freedom of Information Act (FOIA)
About Us
Career Opportunities